Time,TemperatureF,DewpointF,PressureIn,WindDirection,WindDirectionDegrees,WindSpeedMPH,WindSpeedGustMPH,Humidity,HourlyPrecipIn,Conditions,Clouds,dailyrainin,SoftwareType,DateUTC
2013-01-29 00:00:00,64.4,60.4,30.25,East,79,1.0,1.0,87,0.00,,,0.00,Wunderground v.1.15,2013-01-29 05:00:00,
2013-01-29 00:01:00,64.4,60.4,30.25,East,79,1.0,1.0,87,0.00,,,0.00,Wunderground v.1.15,2013-01-29 05:01:00,
2013-01-29 00:02:00,64.3,60.3,30.25,East,79,2.0,2.0,87,0.00,,,0.00,Wunderground v.1.15,2013-01-29 05:02:00,
2013-01-29 00:03:00,64.3,60.3,30.25,East,79,1.0,2.0,87,0.00,,,0.00,Wunderground v.1.15,2013-01-29 05:03:00,
2013-01-29 00:05:00,64.2,60.2,30.25,East,79,0.0,2.0,87,0.00,,,0.00,Wunderground v.1.15,2013-01-29 05:05:00,
2013-01-29 00:08:00,64.1,60.5,30.25,East,79,0.0,2.0,88,0.00,,,0.00,Wunderground v.1.15,2013-01-29 05:08:00,
2013-01-29 00:10:00,64.1,60.5,30.25,East,79,0.0,1.0,88,0.00,,,0.00,Wunderground v.1.15,2013-01-29 05:10:00,
2013-01-29 00:11:00,64.1,60.5,30.25,East,79,0.0,1.0,88,0.00,,,0.00,Wunderground v.1.15,2013-01-29 05:11:00,
2013-01-29 00:13:00,64.1,60.5,30.25,East,79,0.0,1.0,88,0.00,,,0.00,Wunderground v.1.15,2013-01-29 05:13:00,
2013-01-29 00:17:00,63.9,60.3,30.24,East,79,0.0,1.0,88,0.00,,,0.00,Wunderground v.1.15,2013-01-29 05:17:00,
2013-01-29 00:18:00,64.0,60.4,30.24,East,79,0.0,1.0,88,0.00,,,0.00,Wunderground v.1.15,2013-01-29 05:18:00,
2013-01-29 00:19:00,64.0,60.4,30.24,East,79,0.0,1.0,88,0.00,,,0.00,Wunderground v.1.15,2013-01-29 05:19:00,
2013-01-29 00:21:00,64.0,60.4,30.24,East,79,1.0,1.0,88,0.00,,,0.00,Wunderground v.1.15,2013-01-29 05:21:00,
2013-01-29 00:22:00,64.0,60.4,30.24,East,79,1.0,1.0,88,0.00,,,0.00,Wunderground v.1.15,2013-01-29 05:22:00,
2013-01-29 00:23:00,64.1,60.5,30.24,East,79,1.0,1.0,88,0.00,,,0.00,Wunderground v.1.15,2013-01-29 05:23:00,
2013-01-29 00:27:00,64.2,60.6,30.24,East,79,1.0,1.0,88,0.00,,,0.00,Wunderground v.1.15,2013-01-29 05:27:00,
2013-01-29 00:28:00,64.2,60.6,30.24,East,79,1.0,1.0,88,0.00,,,0.00,Wunderground v.1.15,2013-01-29 05:28:00,
2013-01-29 00:30:00,64.1,60.5,30.24,East,79,0.0,1.0,88,0.00,,,0.00,Wunderground v.1.15,2013-01-29 05:30:00,
2013-01-29 00:31:00,64.2,60.2,30.24,East,79,1.0,1.0,87,0.00,,,0.00,Wunderground v.1.15,2013-01-29 05:31:00,
2013-01-29 00:34:00,64.2,60.2,30.24,East,79,1.0,1.0,87,0.00,,,0.00,Wunderground v.1.15,2013-01-29 05:34:00,
2013-01-29 00:35:00,64.2,60.2,30.24,ENE,73,2.0,2.0,87,0.00,,,0.00,Wunderground v.1.15,2013-01-29 05:35:00,
2013-01-29 00:36:00,64.2,60.2,30.24,ENE,73,1.0,2.0,87,0.00,,,0.00,Wunderground v.1.15,2013-01-29 05:36:00,
2013-01-29 00:39:00,64.1,60.2,30.24,ENE,73,0.0,2.0,87,0.00,,,0.00,Wunderground v.1.15,2013-01-29 05:39:00,
2013-01-29 00:40:00,64.1,60.2,30.24,ENE,74,1.0,1.0,87,0.00,,,0.00,Wunderground v.1.15,2013-01-29 05:40:00,
2013-01-29 00:41:00,64.0,60.1,30.24,ENE,73,1.0,1.0,87,0.00,,,0.00,Wunderground v.1.15,2013-01-29 05:41:00,
2013-01-29 00:45:00,63.8,59.9,30.24,ENE,64,0.0,2.0,87,0.00,,,0.00,Wunderground v.1.15,2013-01-29 05:45:00,
2013-01-29 00:46:00,63.7,59.8,30.24,ENE,64,0.0,2.0,87,0.00,,,0.00,Wunderground v.1.15,2013-01-29 05:46:00,
2013-01-29 00:49:00,63.5,59.6,30.24,NE,43,1.0,2.0,87,0.00,,,0.00,Wunderground v.1.15,2013-01-29 05:49:00,
2013-01-29 00:50:00,63.5,59.9,30.24,NE,43,2.0,2.0,88,0.00,,,0.00,Wunderground v.1.15,2013-01-29 05:50:00,
2013-01-29 00:51:00,63.4,59.8,30.24,NE,41,2.0,2.0,88,0.00,,,0.00,Wunderground v.1.15,2013-01-29 05:51:00,
2013-01-29 00:56:00,63.1,59.5,30.24,ENE,67,1.0,2.0,88,0.00,,,0.00,Wunderground v.1.15,2013-01-29 05:56:00,
2013-01-29 00:57:00,63.1,59.5,30.24,ENE,67,2.0,2.0,88,0.00,,,0.00,Wunderground v.1.15,2013-01-29 05:57:00,
2013-01-29 00:59:00,63.0,59.4,30.24,ENE,65,1.0,2.0,88,0.00,,,0.00,Wunderground v.1.15,2013-01-29 05:59:00,
2013-01-29 01:00:00,62.9,59.3,30.24,ENE,72,1.0,2.0,88,0.00,,,0.00,Wunderground v.1.15,2013-01-29 06:00:00,
2013-01-29 01:01:00,62.9,59.3,30.24,ENE,72,2.0,2.0,88,0.00,,,0.00,Wunderground v.1.15,2013-01-29 06:01:00,
2013-01-29 01:03:00,62.9,59.3,30.24,ENE,72,1.0,2.0,88,0.00,,,0.00,Wunderground v.1.15,2013-01-29 06:03:00,
2013-01-29 01:05:00,62.8,59.5,30.24,ENE,72,1.0,2.0,89,0.00,,,0.00,Wunderground v.1.15,2013-01-29 06:05:00,
2013-01-29 01:06:00,62.8,59.5,30.24,ENE,72,1.0,2.0,89,0.00,,,0.00,Wunderground v.1.15,2013-01-29 06:06:00,
2013-01-29 01:11:00,62.7,59.4,30.24,ENE,72,1.0,1.0,89,0.00,,,0.00,Wunderground v.1.15,2013-01-29 06:11:00,
2013-01-29 01:12:00,62.7,59.4,30.24,ENE,72,2.0,2.0,89,0.00,,,0.00,Wunderground v.1.15,2013-01-29 06:12:00,
2013-01-29 01:14:00,62.7,59.4,30.24,ENE,72,1.0,2.0,89,0.00,,,0.00,Wunderground v.1.15,2013-01-29 06:14:00,
2013-01-29 01:16:00,62.6,59.3,30.24,ENE,72,1.0,2.0,89,0.00,,,0.00,Wunderground v.1.15,2013-01-29 06:16:00,
2013-01-29 01:17:00,62.7,59.4,30.24,ENE,72,1.0,2.0,89,0.00,,,0.00,Wunderground v.1.15,2013-01-29 06:17:00,
2013-01-29 01:19:00,62.6,59.3,30.23,ENE,72,1.0,2.0,89,0.00,,,0.00,Wunderground v.1.15,2013-01-29 06:19:00,
2013-01-29 01:23:00,62.5,59.2,30.23,ENE,72,0.0,1.0,89,0.00,,,0.00,Wunderground v.1.15,2013-01-29 06:23:00,
2013-01-29 01:24:00,62.5,59.2,30.23,ESE,109,1.0,1.0,89,0.00,,,0.00,Wunderground v.1.15,2013-01-29 06:24:00,
2013-01-29 01:26:00,62.4,59.1,30.23,ESE,108,1.0,1.0,89,0.00,,,0.00,Wunderground v.1.15,2013-01-29 06:26:00,
2013-01-29 01:28:00,62.4,59.1,30.23,East,101,1.0,2.0,89,0.00,,,0.00,Wunderground v.1.15,2013-01-29 06:28:00,
2013-01-29 01:32:00,62.5,59.2,30.23,East,89,2.0,2.0,89,0.00,,,0.00,Wunderground v.1.15,2013-01-29 06:32:00,
2013-01-29 01:34:00,62.5,59.2,30.23,East,81,3.0,3.0,89,0.00,,,0.00,Wunderground v.1.15,2013-01-29 06:34:00,
2013-01-29 01:35:00,62.5,59.2,30.23,East,91,2.0,3.0,89,0.00,,,0.00,Wunderground v.1.15,2013-01-29 06:35:00,
2013-01-29 01:39:00,62.6,59.3,30.23,ENE,65,3.0,3.0,89,0.00,,,0.00,Wunderground v.1.15,2013-01-29 06:39:00,
2013-01-29 01:40:00,62.7,59.4,30.23,ENE,63,2.0,2.0,89,0.00,,,0.00,Wunderground v.1.15,2013-01-29 06:40:00,
2013-01-29 01:42:00,62.7,59.4,30.23,ENE,60,3.0,3.0,89,0.00,,,0.00,Wunderground v.1.15,2013-01-29 06:42:00,
2013-01-29 01:45:00,62.8,59.5,30.23,ENE,62,1.0,3.0,89,0.00,,,0.00,Wunderground v.1.15,2013-01-29 06:45:00,
2013-01-29 01:47:00,62.8,59.5,30.23,NE,53,2.0,3.0,89,0.00,,,0.00,Wunderground v.1.15,2013-01-29 06:47:00,
2013-01-29 01:48:00,62.7,59.4,30.23,NNE,19,2.0,3.0,89,0.00,,,0.00,Wunderground v.1.15,2013-01-29 06:48:00,
2013-01-29 01:53:00,62.5,59.2,30.23,NE,36,1.0,3.0,89,0.00,,,0.00,Wunderground v.1.15,2013-01-29 06:53:00,
2013-01-29 01:57:00,62.3,59.0,30.23,ENE,66,1.0,3.0,89,0.00,,,0.00,Wunderground v.1.15,2013-01-29 06:57:00,
2013-01-29 01:59:00,62.2,58.9,30.23,ENE,72,2.0,3.0,89,0.00,,,0.00,Wunderground v.1.15,2013-01-29 06:59:00,
2013-01-29 02:00:00,62.2,58.9,30.23,ENE,72,2.0,2.0,89,0.00,,,0.00,Wunderground v.1.15,2013-01-29 07:00:00,
2013-01-29 02:01:00,62.2,58.9,30.23,ENE,72,2.0,2.0,89,0.00,,,0.00,Wunderground v.1.15,2013-01-29 07:01:00,
2013-01-29 02:02:00,62.1,58.8,30.23,ENE,64,1.0,2.0,89,0.00,,,0.00,Wunderground v.1.15,2013-01-29 07:02:00,
2013-01-29 02:04:00,62.1,58.8,30.23,ENE,63,2.0,3.0,89,0.00,,,0.00,Wunderground v.1.15,2013-01-29 07:04:00,
2013-01-29 02:05:00,62.0,58.7,30.23,ENE,62,2.0,3.0,89,0.00,,,0.00,Wunderground v.1.15,2013-01-29 07:05:00,
2013-01-29 02:06:00,62.0,58.7,30.23,ENE,67,2.0,3.0,89,0.00,,,0.00,Wunderground v.1.15,2013-01-29 07:06:00,
2013-01-29 02:07:00,62.0,58.7,30.23,ENE,67,1.0,3.0,89,0.00,,,0.00,Wunderground v.1.15,2013-01-29 07:07:00,
2013-01-29 02:09:00,62.0,58.7,30.23,NE,36,2.0,3.0,89,0.00,,,0.00,Wunderground v.1.15,2013-01-29 07:09:00,
2013-01-29 02:10:00,61.9,58.6,30.23,NE,36,1.0,1.0,89,0.00,,,0.00,Wunderground v.1.15,2013-01-29 07:10:00,
2013-01-29 02:11:00,61.9,58.9,30.23,NE,40,2.0,2.0,90,0.00,,,0.00,Wunderground v.1.15,2013-01-29 07:11:00,
2013-01-29 02:12:00,61.8,58.8,30.23,NNE,27,2.0,2.0,90,0.00,,,0.00,Wunderground v.1.15,2013-01-29 07:12:00,
2013-01-29 02:14:00,61.8,58.8,30.23,NNE,20,1.0,2.0,90,0.00,,,0.00,Wunderground v.1.15,2013-01-29 07:14:00,
2013-01-29 02:15:00,61.7,58.7,30.23,NNE,29,1.0,2.0,90,0.00,,,0.00,Wunderground v.1.15,2013-01-29 07:15:00,
2013-01-29 02:16:00,61.7,58.7,30.23,NE,44,2.0,3.0,90,0.00,,,0.00,Wunderground v.1.15,2013-01-29 07:16:00,
2013-01-29 02:17:00,61.7,58.7,30.23,NE,44,1.0,3.0,90,0.00,,,0.00,Wunderground v.1.15,2013-01-29 07:17:00,
2013-01-29 02:19:00,61.6,58.6,30.23,NE,46,2.0,3.0,90,0.00,,,0.00,Wunderground v.1.15,2013-01-29 07:19:00,
2013-01-29 02:20:00,61.6,58.6,30.23,NE,47,2.0,3.0,90,0.00,,,0.00,Wunderground v.1.15,2013-01-29 07:20:00,
2013-01-29 02:21:00,61.6,58.6,30.23,NNE,29,3.0,4.0,90,0.00,,,0.00,Wunderground v.1.15,2013-01-29 07:21:00,
2013-01-29 02:22:00,61.6,58.6,30.23,NE,47,2.0,4.0,90,0.00,,,0.00,Wunderground v.1.15,2013-01-29 07:22:00,
2013-01-29 02:24:00,61.5,58.5,30.23,NE,49,2.0,4.0,90,0.00,,,0.00,Wunderground v.1.15,2013-01-29 07:24:00,
2013-01-29 02:25:00,61.5,58.5,30.23,NE,44,2.0,4.0,90,0.00,,,0.00,Wunderground v.1.15,2013-01-29 07:25:00,
2013-01-29 02:27:00,61.4,58.4,30.23,NE,56,2.0,5.0,90,0.00,,,0.00,Wunderground v.1.15,2013-01-29 07:27:00,
2013-01-29 02:30:00,61.3,58.3,30.23,ENE,60,2.0,4.0,90,0.00,,,0.00,Wunderground v.1.15,2013-01-29 07:30:00,
2013-01-29 02:31:00,61.3,58.3,30.23,ENE,60,1.0,4.0,90,0.00,,,0.00,Wunderground v.1.15,2013-01-29 07:31:00,
2013-01-29 02:32:00,61.3,58.3,30.23,NE,34,2.0,4.0,90,0.00,,,0.00,Wunderground v.1.15,2013-01-29 07:32:00,
2013-01-29 02:36:00,61.3,58.7,30.23,NE,51,1.0,4.0,91,0.00,,,0.00,Wunderground v.1.15,2013-01-29 07:36:00,
2013-01-29 02:37:00,61.3,58.7,30.22,NE,45,2.0,4.0,91,0.00,,,0.00,Wunderground v.1.15,2013-01-29 07:37:00,
2013-01-29 02:41:00,61.2,58.6,30.22,NE,49,0.0,3.0,91,0.00,,,0.00,Wunderground v.1.15,2013-01-29 07:41:00,
2013-01-29 02:42:00,61.2,58.6,30.22,NE,55,3.0,3.0,91,0.00,,,0.00,Wunderground v.1.15,2013-01-29 07:42:00,
2013-01-29 02:43:00,61.2,58.6,30.22,NNE,32,1.0,3.0,91,0.00,,,0.00,Wunderground v.1.15,2013-01-29 07:43:00,
2013-01-29 02:46:00,61.1,58.5,30.22,ENE,60,2.0,3.0,91,0.00,,,0.00,Wunderground v.1.15,2013-01-29 07:46:00,
2013-01-29 02:47:00,61.1,58.5,30.22,ENE,72,1.0,3.0,91,0.00,,,0.00,Wunderground v.1.15,2013-01-29 07:47:00,
2013-01-29 02:48:00,61.1,58.5,30.22,ENE,72,1.0,3.0,91,0.00,,,0.00,Wunderground v.1.15,2013-01-29 07:48:00,
2013-01-29 02:51:00,61.0,58.4,30.22,East,80,1.0,1.0,91,0.00,,,0.00,Wunderground v.1.15,2013-01-29 07:51:00,
2013-01-29 02:52:00,61.0,58.4,30.22,East,88,1.0,2.0,91,0.00,,,0.00,Wunderground v.1.15,2013-01-29 07:52:00,
2013-01-29 02:53:00,61.0,58.4,30.22,East,87,1.0,2.0,91,0.00,,,0.00,Wunderground v.1.15,2013-01-29 07:53:00,
2013-01-29 02:56:00,61.0,58.4,30.22,ENE,72,1.0,2.0,91,0.00,,,0.00,Wunderground v.1.15,2013-01-29 07:56:00,
2013-01-29 02:57:00,61.0,58.4,30.22,East,85,1.0,2.0,91,0.00,,,0.00,Wunderground v.1.15,2013-01-29 07:57:00,
2013-01-29 02:58:00,61.0,58.4,30.22,East,84,1.0,2.0,91,0.00,,,0.00,Wunderground v.1.15,2013-01-29 07:58:00,
2013-01-29 03:01:00,61.0,58.4,30.22,NE,55,1.0,2.0,91,0.00,,,0.00,Wunderground v.1.15,2013-01-29 08:01:00,
2013-01-29 03:03:00,61.0,58.4,30.22,NE,56,1.0,2.0,91,0.00,,,0.00,Wunderground v.1.15,2013-01-29 08:03:00,
2013-01-29 03:06:00,61.0,58.4,30.22,ENE,60,1.0,2.0,91,0.00,,,0.00,Wunderground v.1.15,2013-01-29 08:06:00,
2013-01-29 03:08:00,60.9,58.3,30.22,ENE,77,2.0,2.0,91,0.00,,,0.00,Wunderground v.1.15,2013-01-29 08:08:00,
2013-01-29 03:11:00,60.9,58.6,30.21,ENE,76,0.0,2.0,92,0.00,,,0.00,Wunderground v.1.15,2013-01-29 08:11:00,
2013-01-29 03:13:00,60.9,58.6,30.21,East,91,1.0,3.0,92,0.00,,,0.00,Wunderground v.1.15,2013-01-29 08:13:00,
2013-01-29 03:14:00,60.9,58.6,30.21,East,91,1.0,3.0,92,0.00,,,0.00,Wunderground v.1.15,2013-01-29 08:14:00,
2013-01-29 03:16:00,60.9,58.6,30.21,East,79,1.0,3.0,92,0.00,,,0.00,Wunderground v.1.15,2013-01-29 08:16:00,
2013-01-29 03:18:00,60.9,58.6,30.21,ENE,78,1.0,3.0,92,0.00,,,0.00,Wunderground v.1.15,2013-01-29 08:18:00,
2013-01-29 03:19:00,60.9,58.6,30.21,ENE,78,2.0,3.0,92,0.00,,,0.00,Wunderground v.1.15,2013-01-29 08:19:00,
2013-01-29 03:22:00,60.9,58.6,30.21,ENE,72,1.0,2.0,92,0.00,,,0.00,Wunderground v.1.15,2013-01-29 08:22:00,
2013-01-29 03:23:00,60.9,58.6,30.21,East,79,1.0,2.0,92,0.00,,,0.00,Wunderground v.1.15,2013-01-29 08:23:00,
2013-01-29 03:24:00,60.9,58.6,30.21,East,81,1.0,2.0,92,0.00,,,0.00,Wunderground v.1.15,2013-01-29 08:24:00,
2013-01-29 03:27:00,60.9,58.6,30.21,East,87,1.0,2.0,92,0.00,,,0.00,Wunderground v.1.15,2013-01-29 08:27:00,
2013-01-29 03:28:00,60.9,58.6,30.21,ENE,78,1.0,3.0,92,0.00,,,0.00,Wunderground v.1.15,2013-01-29 08:28:00,
2013-01-29 03:29:00,60.9,58.6,30.21,ENE,77,2.0,3.0,92,0.00,,,0.00,Wunderground v.1.15,2013-01-29 08:29:00,
2013-01-29 03:32:00,60.9,58.6,30.21,East,84,1.0,2.0,92,0.00,,,0.00,Wunderground v.1.15,2013-01-29 08:32:00,
2013-01-29 03:34:00,60.9,58.6,30.21,East,82,2.0,2.0,92,0.00,,,0.00,Wunderground v.1.15,2013-01-29 08:34:00,
2013-01-29 03:37:00,60.9,58.6,30.21,ENE,77,3.0,3.0,92,0.00,,,0.00,Wunderground v.1.15,2013-01-29 08:37:00,
2013-01-29 03:39:00,60.9,58.6,30.21,East,82,2.0,3.0,92,0.00,,,0.00,Wunderground v.1.15,2013-01-29 08:39:00,
2013-01-29 03:42:00,60.9,58.6,30.21,East,82,2.0,3.0,92,0.00,,,0.00,Wunderground v.1.15,2013-01-29 08:42:00,
2013-01-29 03:43:00,60.9,58.6,30.21,East,84,2.0,3.0,92,0.00,,,0.00,Wunderground v.1.15,2013-01-29 08:43:00,
2013-01-29 03:44:00,60.9,58.6,30.21,East,81,2.0,3.0,92,0.00,,,0.00,Wunderground v.1.15,2013-01-29 08:44:00,
2013-01-29 03:45:00,60.9,58.6,30.21,East,89,3.0,4.0,92,0.00,,,0.00,Wunderground v.1.15,2013-01-29 08:45:00,
2013-01-29 03:47:00,61.0,59.0,30.21,ENE,65,1.0,4.0,93,0.00,,,0.00,Wunderground v.1.15,2013-01-29 08:47:00,
2013-01-29 03:48:00,61.0,59.0,30.21,ENE,67,1.0,4.0,93,0.00,,,0.00,Wunderground v.1.15,2013-01-29 08:48:00,
2013-01-29 03:49:00,61.0,58.7,30.21,ENE,65,1.0,4.0,92,0.00,,,0.00,Wunderground v.1.15,2013-01-29 08:49:00,
2013-01-29 03:50:00,60.9,58.6,30.21,ENE,65,3.0,3.0,92,0.00,,,0.00,Wunderground v.1.15,2013-01-29 08:50:00,
2013-01-29 03:53:00,60.9,58.9,30.21,NE,55,2.0,3.0,93,0.00,,,0.00,Wunderground v.1.15,2013-01-29 08:53:00,
2013-01-29 03:54:00,60.9,58.9,30.21,ENE,66,2.0,3.0,93,0.00,,,0.00,Wunderground v.1.15,2013-01-29 08:54:00,
2013-01-29 03:55:00,60.9,58.9,30.21,ENE,65,1.0,3.0,93,0.00,,,0.00,Wunderground v.1.15,2013-01-29 08:55:00,
2013-01-29 03:58:00,60.8,58.5,30.21,NE,50,2.0,3.0,92,0.00,,,0.00,Wunderground v.1.15,2013-01-29 08:58:00,
2013-01-29 03:59:00,60.8,58.5,30.21,ENE,66,2.0,3.0,92,0.00,,,0.00,Wunderground v.1.15,2013-01-29 08:59:00,
2013-01-29 04:00:00,60.8,58.5,30.21,ENE,67,2.0,2.0,92,0.00,,,0.00,Wunderground v.1.15,2013-01-29 09:00:00,
2013-01-29 04:03:00,60.7,58.7,30.21,ENE,69,2.0,3.0,93,0.00,,,0.00,Wunderground v.1.15,2013-01-29 09:03:00,
2013-01-29 04:04:00,60.7,58.7,30.21,ENE,76,2.0,3.0,93,0.00,,,0.00,Wunderground v.1.15,2013-01-29 09:04:00,
2013-01-29 04:05:00,60.6,58.6,30.21,ENE,77,2.0,3.0,93,0.00,,,0.00,Wunderground v.1.15,2013-01-29 09:05:00,
2013-01-29 04:08:00,60.6,58.6,30.21,ESE,108,2.0,4.0,93,0.00,,,0.00,Wunderground v.1.15,2013-01-29 09:08:00,
2013-01-29 04:10:00,60.6,58.6,30.21,East,86,2.0,2.0,93,0.00,,,0.00,Wunderground v.1.15,2013-01-29 09:10:00,
2013-01-29 04:13:00,60.7,58.7,30.21,ENE,73,3.0,4.0,93,0.00,,,0.00,Wunderground v.1.15,2013-01-29 09:13:00,
2013-01-29 04:15:00,60.7,58.7,30.21,East,87,3.0,4.0,93,0.00,,,0.00,Wunderground v.1.15,2013-01-29 09:15:00,
2013-01-29 04:18:00,60.8,58.8,30.21,East,84,4.0,4.0,93,0.00,,,0.00,Wunderground v.1.15,2013-01-29 09:18:00,
2013-01-29 04:19:00,60.9,58.9,30.21,East,97,3.0,4.0,93,0.00,,,0.00,Wunderground v.1.15,2013-01-29 09:19:00,
2013-01-29 04:20:00,60.9,58.9,30.21,East,82,2.0,3.0,93,0.00,,,0.00,Wunderground v.1.15,2013-01-29 09:20:00,
2013-01-29 04:21:00,60.9,58.9,30.21,ENE,70,3.0,3.0,93,0.00,,,0.00,Wunderground v.1.15,2013-01-29 09:21:00,
2013-01-29 04:23:00,60.9,58.9,30.21,East,91,2.0,4.0,93,0.00,,,0.00,Wunderground v.1.15,2013-01-29 09:23:00,
2013-01-29 04:24:00,60.9,58.9,30.21,East,81,3.0,4.0,93,0.00,,,0.00,Wunderground v.1.15,2013-01-29 09:24:00,
2013-01-29 04:26:00,60.9,58.9,30.21,ESE,107,2.0,4.0,93,0.00,,,0.00,Wunderground v.1.15,2013-01-29 09:26:00,
2013-01-29 04:29:00,61.0,59.0,30.20,East,79,3.0,5.0,93,0.00,,,0.00,Wunderground v.1.15,2013-01-29 09:29:00,
2013-01-29 04:31:00,61.0,59.3,30.20,ENE,63,3.0,3.0,94,0.00,,,0.00,Wunderground v.1.15,2013-01-29 09:31:00,
2013-01-29 04:34:00,61.1,59.4,30.21,ENE,60,3.0,4.0,94,0.00,,,0.00,Wunderground v.1.15,2013-01-29 09:34:00,
2013-01-29 04:36:00,61.1,59.4,30.21,ENE,68,4.0,4.0,94,0.00,,,0.00,Wunderground v.1.15,2013-01-29 09:36:00,
2013-01-29 04:40:00,61.1,59.4,30.21,ENE,75,2.0,3.0,94,0.00,,,0.00,Wunderground v.1.15,2013-01-29 09:40:00,
2013-01-29 04:41:00,61.1,59.4,30.21,ENE,69,3.0,4.0,94,0.00,,,0.00,Wunderground v.1.15,2013-01-29 09:41:00,
2013-01-29 04:45:00,61.1,59.4,30.21,East,89,3.0,5.0,94,0.00,,,0.00,Wunderground v.1.15,2013-01-29 09:45:00,
2013-01-29 04:46:00,61.1,59.4,30.20,East,85,4.0,6.0,94,0.00,,,0.00,Wunderground v.1.15,2013-01-29 09:46:00,
2013-01-29 04:50:00,61.1,59.4,30.20,ENE,70,3.0,3.0,94,0.00,,,0.00,Wunderground v.1.15,2013-01-29 09:50:00,
2013-01-29 04:51:00,61.1,59.4,30.20,East,91,3.0,4.0,94,0.00,,,0.00,Wunderground v.1.15,2013-01-29 09:51:00,
2013-01-29 04:55:00,61.1,59.4,30.20,East,87,5.0,5.0,94,0.00,,,0.00,Wunderground v.1.15,2013-01-29 09:55:00,
2013-01-29 04:56:00,61.2,59.5,30.20,ENE,68,3.0,5.0,94,0.00,,,0.00,Wunderground v.1.15,2013-01-29 09:56:00,
2013-01-29 05:00:00,61.2,59.5,30.20,East,79,4.0,6.0,94,0.00,,,0.00,Wunderground v.1.15,2013-01-29 10:00:00,
2013-01-29 05:01:00,61.3,59.6,30.20,East,88,5.0,6.0,94,0.00,,,0.00,Wunderground v.1.15,2013-01-29 10:01:00,
2013-01-29 05:05:00,61.4,59.7,30.20,SE,124,2.0,7.0,94,0.00,,,0.00,Wunderground v.1.15,2013-01-29 10:05:00,
2013-01-29 05:06:00,61.4,59.7,30.20,East,101,5.0,7.0,94,0.00,,,0.00,Wunderground v.1.15,2013-01-29 10:06:00,
2013-01-29 05:07:00,61.4,59.7,30.20,ENE,75,3.0,7.0,94,0.00,,,0.00,Wunderground v.1.15,2013-01-29 10:07:00,
2013-01-29 05:10:00,61.7,60.3,30.20,ESE,117,3.0,5.0,95,0.00,,,0.00,Wunderground v.1.15,2013-01-29 10:10:00,
2013-01-29 05:12:00,61.7,60.0,30.20,ESE,108,8.0,8.0,94,0.00,,,0.00,Wunderground v.1.15,2013-01-29 10:12:00,
2013-01-29 05:15:00,62.1,60.7,30.20,East,97,5.0,10.0,95,0.00,,,0.00,Wunderground v.1.15,2013-01-29 10:15:00,
2013-01-29 05:16:00,62.1,60.7,30.20,ENE,70,3.0,10.0,95,0.00,,,0.00,Wunderground v.1.15,2013-01-29 10:16:00,
2013-01-29 05:17:00,62.1,60.7,30.20,East,80,2.0,10.0,95,0.00,,,0.00,Wunderground v.1.15,2013-01-29 10:17:00,
2013-01-29 05:20:00,62.2,60.5,30.20,East,82,2.0,4.0,94,0.00,,,0.00,Wunderground v.1.15,2013-01-29 10:20:00,
2013-01-29 05:21:00,62.2,60.5,30.20,ENE,75,3.0,4.0,94,0.00,,,0.00,Wunderground v.1.15,2013-01-29 10:21:00,
2013-01-29 05:22:00,62.2,60.5,30.21,East,86,3.0,4.0,94,0.00,,,0.00,Wunderground v.1.15,2013-01-29 10:22:00,
2013-01-29 05:26:00,62.3,60.6,30.21,East,100,4.0,7.0,94,0.00,,,0.00,Wunderground v.1.15,2013-01-29 10:26:00,
2013-01-29 05:27:00,62.3,60.6,30.21,ESE,103,2.0,7.0,94,0.00,,,0.00,Wunderground v.1.15,2013-01-29 10:27:00,
2013-01-29 05:31:00,62.3,60.6,30.20,East,90,3.0,5.0,94,0.00,,,0.00,Wunderground v.1.15,2013-01-29 10:31:00,
2013-01-29 05:32:00,62.3,60.6,30.20,NE,56,2.0,5.0,94,0.00,,,0.00,Wunderground v.1.15,2013-01-29 10:32:00,
2013-01-29 05:36:00,62.3,60.6,30.21,ENE,78,6.0,7.0,94,0.00,,,0.00,Wunderground v.1.15,2013-01-29 10:36:00,
2013-01-29 05:37:00,62.3,60.6,30.21,East,80,3.0,7.0,94,0.00,,,0.00,Wunderground v.1.15,2013-01-29 10:37:00,
2013-01-29 05:41:00,62.4,60.7,30.21,ENE,68,3.0,6.0,94,0.00,,,0.00,Wunderground v.1.15,2013-01-29 10:41:00,
2013-01-29 05:42:00,62.3,60.6,30.21,East,100,4.0,6.0,94,0.00,,,0.00,Wunderground v.1.15,2013-01-29 10:42:00,
2013-01-29 05:46:00,62.4,60.7,30.21,East,101,4.0,7.0,94,0.00,,,0.00,Wunderground v.1.15,2013-01-29 10:46:00,
2013-01-29 05:47:00,62.4,60.7,30.21,East,92,5.0,7.0,94,0.00,,,0.00,Wunderground v.1.15,2013-01-29 10:47:00,
2013-01-29 05:52:00,62.5,61.0,30.21,ENE,63,6.0,6.0,95,0.00,,,0.00,Wunderground v.1.15,2013-01-29 10:52:00,
2013-01-29 05:57:00,62.6,60.8,30.21,NE,43,2.0,7.0,94,0.00,,,0.00,Wunderground v.1.15,2013-01-29 10:57:00,
2013-01-29 05:58:00,62.5,60.7,30.21,ENE,67,4.0,7.0,94,0.00,,,0.00,Wunderground v.1.15,2013-01-29 10:58:00,
2013-01-29 06:02:00,62.6,60.8,30.21,ENE,65,4.0,4.0,94,0.00,,,0.00,Wunderground v.1.15,2013-01-29 11:02:00,
2013-01-29 06:03:00,62.6,60.8,30.21,ENE,75,4.0,4.0,94,0.00,,,0.00,Wunderground v.1.15,2013-01-29 11:03:00,
2013-01-29 06:07:00,62.6,60.8,30.21,ENE,73,3.0,5.0,94,0.00,,,0.00,Wunderground v.1.15,2013-01-29 11:07:00,
2013-01-29 06:08:00,62.5,60.7,30.21,East,79,4.0,5.0,94,0.00,,,0.00,Wunderground v.1.15,2013-01-29 11:08:00,
2013-01-29 06:12:00,62.4,60.7,30.21,East,79,2.0,4.0,94,0.00,,,0.00,Wunderground v.1.15,2013-01-29 11:12:00,
2013-01-29 06:13:00,62.4,60.7,30.21,NE,46,3.0,4.0,94,0.00,,,0.00,Wunderground v.1.15,2013-01-29 11:13:00,
2013-01-29 06:17:00,62.2,60.5,30.21,NE,53,2.0,4.0,94,0.00,,,0.00,Wunderground v.1.15,2013-01-29 11:17:00,
2013-01-29 06:18:00,62.2,60.5,30.21,NE,51,2.0,4.0,94,0.00,,,0.00,Wunderground v.1.15,2013-01-29 11:18:00,
2013-01-29 06:22:00,62.1,60.4,30.22,ENE,75,3.0,4.0,94,0.00,,,0.00,Wunderground v.1.15,2013-01-29 11:22:00,
2013-01-29 06:23:00,62.1,60.4,30.22,East,82,4.0,4.0,94,0.00,,,0.00,Wunderground v.1.15,2013-01-29 11:23:00,
2013-01-29 06:24:00,62.1,60.7,30.22,ENE,63,2.0,4.0,95,0.00,,,0.00,Wunderground v.1.15,2013-01-29 11:24:00,
2013-01-29 06:28:00,62.2,60.8,30.22,ENE,72,2.0,6.0,95,0.00,,,0.00,Wunderground v.1.15,2013-01-29 11:28:00,
2013-01-29 06:29:00,62.2,60.8,30.22,NE,55,2.0,6.0,95,0.00,,,0.00,Wunderground v.1.15,2013-01-29 11:29:00,
2013-01-29 06:33:00,62.2,60.8,30.22,NE,44,1.0,5.0,95,0.00,,,0.00,Wunderground v.1.15,2013-01-29 11:33:00,
2013-01-29 06:34:00,62.1,60.7,30.22,NE,47,2.0,5.0,95,0.00,,,0.00,Wunderground v.1.15,2013-01-29 11:34:00,
2013-01-29 06:38:00,62.0,60.6,30.22,NE,44,3.0,5.0,95,0.00,,,0.00,Wunderground v.1.15,2013-01-29 11:38:00,
2013-01-29 06:39:00,61.9,60.5,30.22,NNE,23,2.0,5.0,95,0.00,,,0.00,Wunderground v.1.15,2013-01-29 11:39:00,
2013-01-29 06:43:00,61.7,60.0,30.23,ENE,65,1.0,5.0,94,0.00,,,0.00,Wunderground v.1.15,2013-01-29 11:43:00,
2013-01-29 06:44:00,61.7,60.0,30.23,NE,38,1.0,5.0,94,0.00,,,0.00,Wunderground v.1.15,2013-01-29 11:44:00,
2013-01-29 06:48:00,61.5,60.1,30.23,ENE,58,5.0,6.0,95,0.00,,,0.00,Wunderground v.1.15,2013-01-29 11:48:00,
2013-01-29 06:49:00,61.5,60.1,30.23,ENE,65,1.0,6.0,95,0.00,,,0.00,Wunderground v.1.15,2013-01-29 11:49:00,
2013-01-29 06:53:00,61.3,59.9,30.23,NE,47,2.0,5.0,95,0.00,,,0.00,Wunderground v.1.15,2013-01-29 11:53:00,
2013-01-29 06:54:00,61.3,59.9,30.23,NE,51,2.0,5.0,95,0.00,,,0.00,Wunderground v.1.15,2013-01-29 11:54:00,
2013-01-29 06:58:00,61.1,59.7,30.23,ENE,72,2.0,6.0,95,0.00,,,0.00,Wunderground v.1.15,2013-01-29 11:58:00,
2013-01-29 06:59:00,61.1,59.7,30.23,ENE,58,2.0,6.0,95,0.00,,,0.00,Wunderground v.1.15,2013-01-29 11:59:00,
2013-01-29 07:03:00,61.0,59.6,30.23,ENE,77,3.0,5.0,95,0.00,,,0.00,Wunderground v.1.15,2013-01-29 12:03:00,
2013-01-29 07:04:00,61.0,59.6,30.23,NE,47,3.0,5.0,95,0.00,,,0.00,Wunderground v.1.15,2013-01-29 12:04:00,
2013-01-29 07:05:00,61.0,59.6,30.23,ENE,62,4.0,5.0,95,0.00,,,0.00,Wunderground v.1.15,2013-01-29 12:05:00,
2013-01-29 07:09:00,60.9,59.5,30.23,ENE,75,5.0,5.0,95,0.00,,,0.00,Wunderground v.1.15,2013-01-29 12:09:00,
2013-01-29 07:10:00,60.9,59.5,30.23,ENE,72,1.0,3.0,95,0.00,,,0.00,Wunderground v.1.15,2013-01-29 12:10:00,
2013-01-29 07:14:00,60.9,59.5,30.23,NE,49,4.0,7.0,95,0.00,,,0.00,Wunderground v.1.15,2013-01-29 12:14:00,
2013-01-29 07:15:00,61.0,59.6,30.23,East,81,3.0,7.0,95,0.00,,,0.00,Wunderground v.1.15,2013-01-29 12:15:00,
2013-01-29 07:19:00,61.0,59.6,30.23,ENE,77,3.0,7.0,95,0.00,,,0.00,Wunderground v.1.15,2013-01-29 12:19:00,
2013-01-29 07:20:00,60.9,59.5,30.23,ENE,68,2.0,4.0,95,0.00,,,0.00,Wunderground v.1.15,2013-01-29 12:20:00,
2013-01-29 07:24:00,60.9,59.5,30.23,ENE,69,4.0,7.0,95,0.00,,,0.00,Wunderground v.1.15,2013-01-29 12:24:00,
2013-01-29 07:25:00,61.0,59.6,30.23,NE,39,1.0,7.0,95,0.00,,,0.00,Wunderground v.1.15,2013-01-29 12:25:00,
2013-01-29 07:29:00,60.9,59.5,30.23,ENE,76,3.0,7.0,95,0.00,,,0.00,Wunderground v.1.15,2013-01-29 12:29:00,
2013-01-29 07:30:00,61.0,59.6,30.23,ENE,70,4.0,5.0,95,0.00,,,0.00,Wunderground v.1.15,2013-01-29 12:30:00,
2013-01-29 07:34:00,61.1,60.0,30.23,ENE,70,4.0,6.0,96,0.00,,,0.00,Wunderground v.1.15,2013-01-29 12:34:00,
2013-01-29 07:35:00,61.1,60.0,30.23,ENE,68,3.0,6.0,96,0.00,,,0.00,Wunderground v.1.15,2013-01-29 12:35:00,
2013-01-29 07:39:00,61.3,60.2,30.23,East,80,3.0,6.0,96,0.00,,,0.00,Wunderground v.1.15,2013-01-29 12:39:00,
2013-01-29 07:40:00,61.3,60.2,30.23,ENE,61,4.0,5.0,96,0.00,,,0.00,Wunderground v.1.15,2013-01-29 12:40:00,
2013-01-29 07:44:00,61.5,60.3,30.23,ENE,63,3.0,6.0,96,0.00,,,0.00,Wunderground v.1.15,2013-01-29 12:44:00,
2013-01-29 07:45:00,61.5,60.3,30.23,NE,49,2.0,6.0,96,0.00,,,0.00,Wunderground v.1.15,2013-01-29 12:45:00,
2013-01-29 07:49:00,61.6,60.4,30.23,ENE,67,3.0,7.0,96,0.00,,,0.00,Wunderground v.1.15,2013-01-29 12:49:00,
2013-01-29 07:50:00,61.7,60.5,30.23,ENE,65,5.0,5.0,96,0.00,,,0.00,Wunderground v.1.15,2013-01-29 12:50:00,
2013-01-29 07:54:00,61.8,60.6,30.23,NE,55,4.0,6.0,96,0.00,,,0.00,Wunderground v.1.15,2013-01-29 12:54:00,
2013-01-29 07:55:00,61.8,60.6,30.23,East,89,3.0,6.0,96,0.00,,,0.00,Wunderground v.1.15,2013-01-29 12:55:00,
2013-01-29 07:56:00,61.9,60.7,30.23,East,82,1.0,6.0,96,0.00,,,0.00,Wunderground v.1.15,2013-01-29 12:56:00,
2013-01-29 07:59:00,62.1,60.9,30.23,East,98,6.0,6.0,96,0.00,,,0.00,Wunderground v.1.15,2013-01-29 12:59:00,
2013-01-29 08:00:00,62.1,60.9,30.23,ENE,77,4.0,6.0,96,0.00,,,0.00,Wunderground v.1.15,2013-01-29 13:00:00,
2013-01-29 08:01:00,62.1,60.9,30.23,ESE,115,3.0,6.0,96,0.00,,,0.00,Wunderground v.1.15,2013-01-29 13:01:00,
2013-01-29 08:05:00,62.3,61.1,30.23,East,81,5.0,6.0,96,0.00,,,0.00,Wunderground v.1.15,2013-01-29 13:05:00,
2013-01-29 08:06:00,62.4,61.2,30.23,East,95,6.0,6.0,96,0.00,,,0.00,Wunderground v.1.15,2013-01-29 13:06:00,
2013-01-29 08:10:00,62.6,61.4,30.23,East,89,4.0,4.0,96,0.00,,,0.00,Wunderground v.1.15,2013-01-29 13:10:00,
2013-01-29 08:11:00,62.7,61.5,30.23,ENE,77,3.0,5.0,96,0.00,,,0.00,Wunderground v.1.15,2013-01-29 13:11:00,
2013-01-29 08:15:00,63.0,61.8,30.23,East,93,3.0,6.0,96,0.00,,,0.00,Wunderground v.1.15,2013-01-29 13:15:00,
2013-01-29 08:16:00,63.1,61.9,30.23,East,84,3.0,6.0,96,0.00,,,0.00,Wunderground v.1.15,2013-01-29 13:16:00,
2013-01-29 08:20:00,63.5,62.3,30.23,ENE,78,5.0,5.0,96,0.00,,,0.00,Wunderground v.1.15,2013-01-29 13:20:00,
2013-01-29 08:21:00,63.6,62.4,30.23,East,84,5.0,6.0,96,0.00,,,0.00,Wunderground v.1.15,2013-01-29 13:21:00,
2013-01-29 08:25:00,63.9,62.7,30.23,East,100,2.0,8.0,96,0.00,,,0.00,Wunderground v.1.15,2013-01-29 13:25:00,
2013-01-29 08:26:00,64.0,62.8,30.23,East,85,2.0,8.0,96,0.00,,,0.00,Wunderground v.1.15,2013-01-29 13:26:00,
2013-01-29 08:30:00,64.5,63.3,30.23,East,85,5.0,8.0,96,0.00,,,0.00,Wunderground v.1.15,2013-01-29 13:30:00,
2013-01-29 08:31:00,64.6,63.4,30.23,East,83,4.0,8.0,96,0.00,,,0.00,Wunderground v.1.15,2013-01-29 13:31:00,
2013-01-29 08:32:00,64.7,63.5,30.23,ENE,75,8.0,9.0,96,0.00,,,0.00,Wunderground v.1.15,2013-01-29 13:32:00,
2013-01-29 08:35:00,65.1,63.9,30.24,ENE,73,3.0,9.0,96,0.00,,,0.00,Wunderground v.1.15,2013-01-29 13:35:00,
2013-01-29 08:36:00,65.2,64.0,30.24,East,93,6.0,9.0,96,0.00,,,0.00,Wunderground v.1.15,2013-01-29 13:36:00,
2013-01-29 08:37:00,65.4,64.2,30.24,East,81,3.0,9.0,96,0.00,,,0.00,Wunderground v.1.15,2013-01-29 13:37:00,
2013-01-29 08:40:00,65.7,64.5,30.24,SE,135,5.0,8.0,96,0.00,,,0.00,Wunderground v.1.15,2013-01-29 13:40:00,
2013-01-29 08:41:00,65.7,64.2,30.24,East,82,7.0,8.0,95,0.00,,,0.00,Wunderground v.1.15,2013-01-29 13:41:00,
2013-01-29 08:42:00,65.8,64.3,30.24,East,79,7.0,8.0,95,0.00,,,0.00,Wunderground v.1.15,2013-01-29 13:42:00,
2013-01-29 08:45:00,66.1,64.6,30.24,ENE,70,5.0,10.0,95,0.00,,,0.00,Wunderground v.1.15,2013-01-29 13:45:00,
2013-01-29 08:46:00,66.2,64.7,30.24,ENE,77,3.0,10.0,95,0.00,,,0.00,Wunderground v.1.15,2013-01-29 13:46:00,
2013-01-29 08:47:00,66.2,64.7,30.24,ENE,75,5.0,10.0,95,0.00,,,0.00,Wunderground v.1.15,2013-01-29 13:47:00,
2013-01-29 08:51:00,66.6,65.1,30.24,ESE,106,4.0,6.0,95,0.00,,,0.00,Wunderground v.1.15,2013-01-29 13:51:00,
2013-01-29 08:52:00,66.7,64.9,30.24,East,91,3.0,6.0,94,0.00,,,0.00,Wunderground v.1.15,2013-01-29 13:52:00,
2013-01-29 08:56:00,67.1,65.3,30.24,NE,49,3.0,6.0,94,0.00,,,0.00,Wunderground v.1.15,2013-01-29 13:56:00,
2013-01-29 08:57:00,67.1,65.3,30.24,ENE,62,5.0,8.0,94,0.00,,,0.00,Wunderground v.1.15,2013-01-29 13:57:00,
2013-01-29 09:01:00,67.5,65.4,30.24,ESE,115,2.0,8.0,93,0.00,,,0.00,Wunderground v.1.15,2013-01-29 14:01:00,
2013-01-29 09:02:00,67.6,65.5,30.24,East,82,2.0,8.0,93,0.00,,,0.00,Wunderground v.1.15,2013-01-29 14:02:00,
2013-01-29 09:03:00,67.6,65.5,30.24,NE,47,2.0,8.0,93,0.00,,,0.00,Wunderground v.1.15,2013-01-29 14:03:00,
2013-01-29 09:06:00,68.1,66.0,30.24,ESE,105,7.0,11.0,93,0.00,,,0.00,Wunderground v.1.15,2013-01-29 14:06:00,
2013-01-29 09:07:00,68.2,65.8,30.24,ESE,113,8.0,11.0,92,0.00,,,0.00,Wunderground v.1.15,2013-01-29 14:07:00,
2013-01-29 09:08:00,68.3,65.9,30.24,East,87,7.0,11.0,92,0.00,,,0.00,Wunderground v.1.15,2013-01-29 14:08:00,
2013-01-29 09:11:00,68.6,66.2,30.24,SE,146,7.0,10.0,92,0.00,,,0.00,Wunderground v.1.15,2013-01-29 14:11:00,
2013-01-29 09:12:00,68.7,66.3,30.24,East,81,3.0,10.0,92,0.00,,,0.00,Wunderground v.1.15,2013-01-29 14:12:00,
2013-01-29 09:13:00,68.8,66.4,30.24,ENE,68,8.0,10.0,92,0.00,,,0.00,Wunderground v.1.15,2013-01-29 14:13:00,
2013-01-29 09:16:00,69.2,66.1,30.24,ESE,114,9.0,11.0,90,0.00,,,0.00,Wunderground v.1.15,2013-01-29 14:16:00,
2013-01-29 09:17:00,69.3,66.2,30.24,ESE,110,6.0,11.0,90,0.00,,,0.00,Wunderground v.1.15,2013-01-29 14:17:00,
2013-01-29 09:18:00,69.3,66.2,30.24,ESE,114,5.0,11.0,90,0.00,,,0.00,Wunderground v.1.15,2013-01-29 14:18:00,
2013-01-29 09:21:00,69.5,66.1,30.24,East,86,10.0,15.0,89,0.00,,,0.00,Wunderground v.1.15,2013-01-29 14:21:00,
2013-01-29 09:22:00,69.5,66.1,30.24,East,80,6.0,15.0,89,0.00,,,0.00,Wunderground v.1.15,2013-01-29 14:22:00,
2013-01-29 09:23:00,69.5,66.1,30.24,SE,138,2.0,15.0,89,0.00,,,0.00,Wunderground v.1.15,2013-01-29 14:23:00,
2013-01-29 09:26:00,69.8,66.4,30.24,East,80,8.0,15.0,89,0.00,,,0.00,Wunderground v.1.15,2013-01-29 14:26:00,
2013-01-29 09:27:00,69.8,66.4,30.24,East,89,10.0,15.0,89,0.00,,,0.00,Wunderground v.1.15,2013-01-29 14:27:00,
2013-01-29 09:28:00,69.8,66.4,30.24,ENE,75,6.0,15.0,89,0.00,,,0.00,Wunderground v.1.15,2013-01-29 14:28:00,
2013-01-29 09:32:00,70.1,66.7,30.24,East,91,7.0,10.0,89,0.00,,,0.00,Wunderground v.1.15,2013-01-29 14:32:00,
2013-01-29 09:33:00,70.2,66.8,30.24,SE,129,5.0,10.0,89,0.00,,,0.00,Wunderground v.1.15,2013-01-29 14:33:00,
2013-01-29 09:37:00,70.7,67.3,30.24,ESE,102,3.0,10.0,89,0.00,,,0.00,Wunderground v.1.15,2013-01-29 14:37:00,
2013-01-29 09:38:00,70.8,67.1,30.23,ESE,116,8.0,10.0,88,0.00,,,0.00,Wunderground v.1.15,2013-01-29 14:38:00,
2013-01-29 09:42:00,71.2,67.5,30.24,ESE,119,4.0,11.0,88,0.00,,,0.00,Wunderground v.1.15,2013-01-29 14:42:00,
2013-01-29 09:43:00,71.3,67.2,30.24,East,79,7.0,14.0,87,0.00,,,0.00,Wunderground v.1.15,2013-01-29 14:43:00,
2013-01-29 09:47:00,71.5,67.4,30.24,SE,134,6.0,14.0,87,0.00,,,0.00,Wunderground v.1.15,2013-01-29 14:47:00,
2013-01-29 09:48:00,71.6,67.5,30.24,East,86,5.0,14.0,87,0.00,,,0.00,Wunderground v.1.15,2013-01-29 14:48:00,
2013-01-29 09:49:00,71.6,67.5,30.24,ESE,108,5.0,14.0,87,0.00,,,0.00,Wunderground v.1.15,2013-01-29 14:49:00,
2013-01-29 09:52:00,71.9,67.8,30.24,ESE,108,4.0,10.0,87,0.00,,,0.00,Wunderground v.1.15,2013-01-29 14:52:00,
2013-01-29 09:54:00,72.1,67.7,30.24,East,89,9.0,10.0,86,0.00,,,0.00,Wunderground v.1.15,2013-01-29 14:54:00,
2013-01-29 09:57:00,72.4,68.0,30.24,East,82,9.0,11.0,86,0.00,,,0.00,Wunderground v.1.15,2013-01-29 14:57:00,
2013-01-29 09:59:00,72.5,67.7,30.24,ESE,111,6.0,11.0,85,0.00,,,0.00,Wunderground v.1.15,2013-01-29 14:59:00,
2013-01-29 10:02:00,72.7,67.9,30.24,ESE,111,5.0,9.0,85,0.00,,,0.00,Wunderground v.1.15,2013-01-29 15:02:00,
2013-01-29 10:04:00,72.9,68.1,30.24,East,88,9.0,12.0,85,0.00,,,0.00,Wunderground v.1.15,2013-01-29 15:04:00,
2013-01-29 10:07:00,73.0,67.9,30.23,East,82,11.0,12.0,84,0.00,,,0.00,Wunderground v.1.15,2013-01-29 15:07:00,
2013-01-29 10:09:00,73.0,67.9,30.24,ENE,67,8.0,15.0,84,0.00,,,0.00,Wunderground v.1.15,2013-01-29 15:09:00,
2013-01-29 10:10:00,73.0,67.9,30.23,ENE,78,7.0,10.0,84,0.00,,,0.00,Wunderground v.1.15,2013-01-29 15:10:00,
2013-01-29 10:12:00,73.1,68.0,30.23,SE,127,4.0,12.0,84,0.00,,,0.00,Wunderground v.1.15,2013-01-29 15:12:00,
2013-01-29 10:14:00,73.3,68.2,30.23,East,91,8.0,12.0,84,0.00,,,0.00,Wunderground v.1.15,2013-01-29 15:14:00,
2013-01-29 10:15:00,73.4,68.3,30.23,SE,139,6.0,12.0,84,0.00,,,0.00,Wunderground v.1.15,2013-01-29 15:15:00,
2013-01-29 10:17:00,73.7,68.2,30.23,ESE,110,6.0,12.0,83,0.00,,,0.00,Wunderground v.1.15,2013-01-29 15:17:00,
2013-01-29 10:19:00,73.9,68.4,30.23,ESE,109,9.0,13.0,83,0.00,,,0.00,Wunderground v.1.15,2013-01-29 15:19:00,
2013-01-29 10:20:00,73.9,68.4,30.23,ESE,110,12.0,12.0,83,0.00,,,0.00,Wunderground v.1.15,2013-01-29 15:20:00,
2013-01-29 10:23:00,74.0,68.2,30.23,SE,124,8.0,12.0,82,0.00,,,0.00,Wunderground v.1.15,2013-01-29 15:23:00,
2013-01-29 10:24:00,74.1,68.3,30.23,South,173,7.0,12.0,82,0.00,,,0.00,Wunderground v.1.15,2013-01-29 15:24:00,
2013-01-29 10:25:00,74.2,68.7,30.23,SSE,155,8.0,12.0,83,0.00,,,0.00,Wunderground v.1.15,2013-01-29 15:25:00,
2013-01-29 10:28:00,74.6,68.7,30.23,ESE,109,10.0,12.0,82,0.00,,,0.00,Wunderground v.1.15,2013-01-29 15:28:00,
2013-01-29 10:29:00,74.7,68.5,30.23,ESE,106,7.0,14.0,81,0.00,,,0.00,Wunderground v.1.15,2013-01-29 15:29:00,
2013-01-29 10:30:00,74.7,68.5,30.23,SE,127,11.0,12.0,81,0.00,,,0.00,Wunderground v.1.15,2013-01-29 15:30:00,
2013-01-29 10:33:00,74.7,68.5,30.22,East,100,7.0,14.0,81,0.00,,,0.00,Wunderground v.1.15,2013-01-29 15:33:00,
2013-01-29 10:34:00,74.8,68.6,30.22,SSE,162,3.0,14.0,81,0.00,,,0.00,Wunderground v.1.15,2013-01-29 15:34:00,
2013-01-29 10:36:00,75.0,68.4,30.22,SE,124,6.0,14.0,80,0.00,,,0.00,Wunderground v.1.15,2013-01-29 15:36:00,
2013-01-29 10:38:00,75.4,68.8,30.22,ESE,111,5.0,14.0,80,0.00,,,0.00,Wunderground v.1.15,2013-01-29 15:38:00,
2013-01-29 10:39:00,75.5,68.9,30.22,East,94,10.0,14.0,80,0.00,,,0.00,Wunderground v.1.15,2013-01-29 15:39:00,
2013-01-29 10:41:00,75.7,68.7,30.22,ESE,117,9.0,11.0,79,0.00,,,0.00,Wunderground v.1.15,2013-01-29 15:41:00,
2013-01-29 10:44:00,75.8,68.8,30.22,ESE,119,8.0,12.0,79,0.00,,,0.00,Wunderground v.1.15,2013-01-29 15:44:00,
2013-01-29 10:45:00,75.8,68.8,30.22,ESE,121,6.0,12.0,79,0.00,,,0.00,Wunderground v.1.15,2013-01-29 15:45:00,
2013-01-29 10:46:00,76.0,69.0,30.22,ESE,118,9.0,12.0,79,0.00,,,0.00,Wunderground v.1.15,2013-01-29 15:46:00,
2013-01-29 10:49:00,76.4,69.0,30.22,SE,140,11.0,12.0,78,0.00,,,0.00,Wunderground v.1.15,2013-01-29 15:49:00,
2013-01-29 10:50:00,76.4,68.3,30.22,SE,138,14.0,16.0,76,0.00,,,0.00,Wunderground v.1.15,2013-01-29 15:50:00,
2013-01-29 10:52:00,76.3,68.2,30.22,East,98,11.0,16.0,76,0.00,,,0.00,Wunderground v.1.15,2013-01-29 15:52:00,
2013-01-29 10:54:00,76.2,68.1,30.22,SSE,162,9.0,16.0,76,0.00,,,0.00,Wunderground v.1.15,2013-01-29 15:54:00,
2013-01-29 10:55:00,76.3,68.2,30.22,ESE,109,11.0,16.0,76,0.00,,,0.00,Wunderground v.1.15,2013-01-29 15:55:00,
2013-01-29 10:57:00,76.3,68.2,30.22,ESE,121,3.0,16.0,76,0.00,,,0.00,Wunderground v.1.15,2013-01-29 15:57:00,
2013-01-29 10:59:00,76.5,68.4,30.22,East,92,9.0,16.0,76,0.00,,,0.00,Wunderground v.1.15,2013-01-29 15:59:00,
2013-01-29 11:00:00,76.6,68.5,30.22,East,101,12.0,12.0,76,0.00,,,0.00,Wunderground v.1.15,2013-01-29 16:00:00,
2013-01-29 11:02:00,76.6,68.5,30.22,ESE,119,5.0,12.0,76,0.00,,,0.00,Wunderground v.1.15,2013-01-29 16:02:00,
2013-01-29 11:04:00,76.7,68.6,30.22,SE,125,13.0,16.0,76,0.00,,,0.00,Wunderground v.1.15,2013-01-29 16:04:00,
2013-01-29 11:05:00,76.7,68.2,30.22,ESE,104,13.0,16.0,75,0.00,,,0.00,Wunderground v.1.15,2013-01-29 16:05:00,
2013-01-29 11:07:00,76.6,68.1,30.22,ESE,103,15.0,16.0,75,0.00,,,0.00,Wunderground v.1.15,2013-01-29 16:07:00,
2013-01-29 11:09:00,76.5,68.4,30.22,ESE,115,6.0,16.0,76,0.00,,,0.00,Wunderground v.1.15,2013-01-29 16:09:00,
2013-01-29 11:10:00,76.5,68.4,30.22,ESE,108,8.0,9.0,76,0.00,,,0.00,Wunderground v.1.15,2013-01-29 16:10:00,
2013-01-29 11:12:00,76.5,68.4,30.22,East,91,10.0,14.0,76,0.00,,,0.00,Wunderground v.1.15,2013-01-29 16:12:00,
2013-01-29 11:15:00,76.6,68.5,30.21,SSE,160,5.0,14.0,76,0.00,,,0.00,Wunderground v.1.15,2013-01-29 16:15:00,
2013-01-29 11:17:00,76.7,68.6,30.21,East,82,14.0,14.0,76,0.00,,,0.00,Wunderground v.1.15,2013-01-29 16:17:00,
2013-01-29 11:20:00,76.8,68.3,30.21,East,85,8.0,8.0,75,0.00,,,0.00,Wunderground v.1.15,2013-01-29 16:20:00,
2013-01-29 11:23:00,77.1,68.6,30.21,East,82,6.0,12.0,75,0.00,,,0.00,Wunderground v.1.15,2013-01-29 16:23:00,
2013-01-29 11:25:00,77.4,68.9,30.21,SE,127,9.0,12.0,75,0.00,,,0.00,Wunderground v.1.15,2013-01-29 16:25:00,
2013-01-29 11:28:00,77.5,68.2,30.20,ESE,122,6.0,14.0,73,0.00,,,0.00,Wunderground v.1.15,2013-01-29 16:28:00,
2013-01-29 11:30:00,77.7,68.0,30.20,East,91,9.0,11.0,72,0.00,,,0.00,Wunderground v.1.15,2013-01-29 16:30:00,
2013-01-29 11:34:00,78.0,68.2,30.20,ESE,117,3.0,14.0,72,0.00,,,0.00,Wunderground v.1.15,2013-01-29 16:34:00,
2013-01-29 11:35:00,78.2,67.6,30.20,ESE,110,2.0,14.0,70,0.00,,,0.00,Wunderground v.1.15,2013-01-29 16:35:00,
2013-01-29 11:39:00,78.7,68.1,30.19,South,180,3.0,14.0,70,0.00,,,0.00,Wunderground v.1.15,2013-01-29 16:39:00,
2013-01-29 11:40:00,78.9,67.9,30.19,SSE,153,6.0,7.0,69,0.00,,,0.00,Wunderground v.1.15,2013-01-29 16:40:00,
2013-01-29 11:44:00,79.2,67.7,30.19,ESE,102,10.0,14.0,68,0.00,,,0.00,Wunderground v.1.15,2013-01-29 16:44:00,
2013-01-29 11:45:00,79.1,66.8,30.19,ESE,111,13.0,18.0,66,0.00,,,0.00,Wunderground v.1.15,2013-01-29 16:45:00,
2013-01-29 11:49:00,79.1,66.8,30.19,SE,132,10.0,18.0,66,0.00,,,0.00,Wunderground v.1.15,2013-01-29 16:49:00,
2013-01-29 11:50:00,79.0,66.7,30.19,South,175,2.0,8.0,66,0.00,,,0.00,Wunderground v.1.15,2013-01-29 16:50:00,
2013-01-29 11:51:00,79.0,66.7,30.19,SSE,148,7.0,8.0,66,0.00,,,0.00,Wunderground v.1.15,2013-01-29 16:51:00,
2013-01-29 11:54:00,79.3,67.0,30.18,SSE,153,8.0,10.0,66,0.00,,,0.00,Wunderground v.1.15,2013-01-29 16:54:00,
2013-01-29 11:55:00,79.6,67.2,30.18,SSW,200,2.0,10.0,66,0.00,,,0.00,Wunderground v.1.15,2013-01-29 16:55:00,
2013-01-29 11:56:00,79.7,67.3,30.18,ESE,120,5.0,10.0,66,0.00,,,0.00,Wunderground v.1.15,2013-01-29 16:56:00,
2013-01-29 11:59:00,79.7,66.9,30.18,ESE,102,8.0,14.0,65,0.00,,,0.00,Wunderground v.1.15,2013-01-29 16:59:00,
2013-01-29 12:01:00,79.6,66.8,30.18,ESE,105,3.0,12.0,65,0.00,,,0.00,Wunderground v.1.15,2013-01-29 17:01:00,
2013-01-29 12:04:00,79.9,66.6,30.18,ESE,121,7.0,12.0,64,0.00,,,0.00,Wunderground v.1.15,2013-01-29 17:04:00,
2013-01-29 12:06:00,80.0,66.3,30.18,ESE,118,5.0,18.0,63,0.00,,,0.00,Wunderground v.1.15,2013-01-29 17:06:00,
2013-01-29 12:07:00,80.1,66.8,30.18,East,101,9.0,18.0,64,0.00,,,0.00,Wunderground v.1.15,2013-01-29 17:07:00,
2013-01-29 12:09:00,80.2,66.9,30.18,SE,129,3.0,18.0,64,0.00,,,0.00,Wunderground v.1.15,2013-01-29 17:09:00,
2013-01-29 12:11:00,80.3,67.0,30.17,ESE,120,5.0,10.0,64,0.00,,,0.00,Wunderground v.1.15,2013-01-29 17:11:00,
2013-01-29 12:12:00,80.3,67.0,30.17,SE,144,11.0,13.0,64,0.00,,,0.00,Wunderground v.1.15,2013-01-29 17:12:00,
2013-01-29 12:15:00,80.3,66.1,30.17,East,94,13.0,14.0,62,0.00,,,0.00,Wunderground v.1.15,2013-01-29 17:15:00,
2013-01-29 12:16:00,80.2,66.0,30.17,ESE,115,10.0,15.0,62,0.00,,,0.00,Wunderground v.1.15,2013-01-29 17:16:00,
2013-01-29 12:17:00,80.1,65.9,30.17,SE,127,6.0,17.0,62,0.00,,,0.00,Wunderground v.1.15,2013-01-29 17:17:00,
2013-01-29 12:20:00,79.7,66.4,30.17,SE,136,10.0,16.0,64,0.00,,,0.00,Wunderground v.1.15,2013-01-29 17:20:00,
2013-01-29 12:21:00,79.6,66.3,30.17,ESE,105,17.0,17.0,64,0.00,,,0.00,Wunderground v.1.15,2013-01-29 17:21:00,
2013-01-29 12:22:00,79.6,66.3,30.17,ESE,115,7.0,19.0,64,0.00,,,0.00,Wunderground v.1.15,2013-01-29 17:22:00,
2013-01-29 12:25:00,79.5,66.7,30.17,SSE,166,5.0,19.0,65,0.00,,,0.00,Wunderground v.1.15,2013-01-29 17:25:00,
2013-01-29 12:26:00,79.5,67.1,30.17,SE,138,6.0,19.0,66,0.00,,,0.00,Wunderground v.1.15,2013-01-29 17:26:00,
2013-01-29 12:27:00,79.5,66.7,30.17,ESE,102,7.0,19.0,65,0.00,,,0.00,Wunderground v.1.15,2013-01-29 17:27:00,
2013-01-29 12:30:00,79.5,66.7,30.16,ESE,121,10.0,13.0,65,0.00,,,0.00,Wunderground v.1.15,2013-01-29 17:30:00,
2013-01-29 12:31:00,79.5,66.3,30.16,ESE,113,11.0,15.0,64,0.00,,,0.00,Wunderground v.1.15,2013-01-29 17:31:00,
2013-01-29 12:32:00,79.6,66.3,30.16,East,80,15.0,15.0,64,0.00,,,0.00,Wunderground v.1.15,2013-01-29 17:32:00,
2013-01-29 12:35:00,79.8,66.5,30.16,SSE,160,9.0,15.0,64,0.00,,,0.00,Wunderground v.1.15,2013-01-29 17:35:00,
2013-01-29 12:36:00,79.7,66.4,30.16,SE,137,5.0,15.0,64,0.00,,,0.00,Wunderground v.1.15,2013-01-29 17:36:00,
2013-01-29 12:37:00,79.7,66.9,30.16,SSE,148,9.0,15.0,65,0.00,,,0.00,Wunderground v.1.15,2013-01-29 17:37:00,
2013-01-29 12:40:00,79.8,67.9,30.16,SSE,149,4.0,9.0,67,0.00,,,0.00,Wunderground v.1.15,2013-01-29 17:40:00,
2013-01-29 12:42:00,79.7,68.6,30.16,SW,222,6.0,10.0,69,0.00,,,0.00,Wunderground v.1.15,2013-01-29 17:42:00,
2013-01-29 12:45:00,79.6,68.5,30.16,SSE,160,6.0,16.0,69,0.00,,,0.00,Wunderground v.1.15,2013-01-29 17:45:00,
2013-01-29 12:47:00,79.4,68.3,30.16,SE,144,7.0,16.0,69,0.00,,,0.00,Wunderground v.1.15,2013-01-29 17:47:00,
2013-01-29 12:48:00,79.3,68.2,30.16,South,173,10.0,16.0,69,0.00,,,0.00,Wunderground v.1.15,2013-01-29 17:48:00,
2013-01-29 12:50:00,78.8,68.2,30.15,South,191,10.0,10.0,70,0.00,,,0.00,Wunderground v.1.15,2013-01-29 17:50:00,
2013-01-29 12:52:00,78.5,67.9,30.15,SSW,210,9.0,13.0,70,0.00,,,0.00,Wunderground v.1.15,2013-01-29 17:52:00,
2013-01-29 12:53:00,78.4,67.8,30.15,SSW,212,6.0,13.0,70,0.00,,,0.00,Wunderground v.1.15,2013-01-29 17:53:00,
2013-01-29 12:55:00,78.3,68.1,30.15,SSE,155,8.0,13.0,71,0.00,,,0.00,Wunderground v.1.15,2013-01-29 17:55:00,
2013-01-29 12:57:00,78.3,68.5,30.15,South,175,8.0,13.0,72,0.00,,,0.00,Wunderground v.1.15,2013-01-29 17:57:00,
2013-01-29 12:58:00,78.3,68.1,30.15,SSE,148,6.0,13.0,71,0.00,,,0.00,Wunderground v.1.15,2013-01-29 17:58:00,
2013-01-29 13:00:00,78.2,68.0,30.15,SE,139,5.0,12.0,71,0.00,,,0.00,Wunderground v.1.15,2013-01-29 18:00:00,
2013-01-29 13:03:00,78.3,68.5,30.15,SE,142,6.0,12.0,72,0.00,,,0.00,Wunderground v.1.15,2013-01-29 18:03:00,
2013-01-29 13:04:00,78.3,68.5,30.15,SSE,167,8.0,12.0,72,0.00,,,0.00,Wunderground v.1.15,2013-01-29 18:04:00,
2013-01-29 13:05:00,78.1,68.3,30.15,SSW,210,5.0,12.0,72,0.00,,,0.00,Wunderground v.1.15,2013-01-29 18:05:00,
2013-01-29 13:08:00,78.0,68.2,30.15,SE,139,5.0,12.0,72,0.00,,,0.00,Wunderground v.1.15,2013-01-29 18:08:00,
2013-01-29 13:09:00,78.0,68.6,30.15,SSE,156,9.0,12.0,73,0.00,,,0.00,Wunderground v.1.15,2013-01-29 18:09:00,
2013-01-29 13:11:00,78.2,68.4,30.15,SW,221,5.0,9.0,72,0.00,,,0.00,Wunderground v.1.15,2013-01-29 18:11:00,
2013-01-29 13:13:00,78.4,68.2,30.15,SW,217,6.0,12.0,71,0.00,,,0.00,Wunderground v.1.15,2013-01-29 18:13:00,
2013-01-29 13:14:00,78.5,68.3,30.14,SSW,197,4.0,12.0,71,0.00,,,0.00,Wunderground v.1.15,2013-01-29 18:14:00,
2013-01-29 13:16:00,78.5,68.7,30.14,South,180,6.0,12.0,72,0.00,,,0.00,Wunderground v.1.15,2013-01-29 18:16:00,
2013-01-29 13:18:00,78.6,68.8,30.14,SSE,162,5.0,12.0,72,0.00,,,0.00,Wunderground v.1.15,2013-01-29 18:18:00,
2013-01-29 13:19:00,78.6,68.4,30.14,SSW,210,13.0,13.0,71,0.00,,,0.00,Wunderground v.1.15,2013-01-29 18:19:00,
2013-01-29 13:21:00,78.5,68.3,30.14,SSW,197,9.0,12.0,71,0.00,,,0.00,Wunderground v.1.15,2013-01-29 18:21:00,
2013-01-29 13:23:00,78.2,68.0,30.14,SSW,210,6.0,12.0,71,0.00,,,0.00,Wunderground v.1.15,2013-01-29 18:23:00,
2013-01-29 13:24:00,78.2,68.0,30.14,SW,233,5.0,12.0,71,0.00,,,0.00,Wunderground v.1.15,2013-01-29 18:24:00,
2013-01-29 13:26:00,78.1,67.9,30.14,SE,139,9.0,12.0,71,0.00,,,0.00,Wunderground v.1.15,2013-01-29 18:26:00,
2013-01-29 13:28:00,78.3,68.5,30.14,SSW,211,2.0,12.0,72,0.00,,,0.00,Wunderground v.1.15,2013-01-29 18:28:00,
2013-01-29 13:29:00,78.4,68.6,30.14,SSE,167,13.0,13.0,72,0.00,,,0.00,Wunderground v.1.15,2013-01-29 18:29:00,
2013-01-29 13:31:00,78.4,68.2,30.14,South,170,7.0,10.0,71,0.00,,,0.00,Wunderground v.1.15,2013-01-29 18:31:00,
2013-01-29 13:33:00,78.5,68.3,30.14,SSE,160,4.0,10.0,71,0.00,,,0.00,Wunderground v.1.15,2013-01-29 18:33:00,
2013-01-29 13:34:00,78.6,68.4,30.14,ESE,111,4.0,10.0,71,0.00,,,0.00,Wunderground v.1.15,2013-01-29 18:34:00,
2013-01-29 13:37:00,78.8,68.6,30.14,SSW,193,5.0,10.0,71,0.00,,,0.00,Wunderground v.1.15,2013-01-29 18:37:00,
2013-01-29 13:38:00,78.9,68.7,30.14,SW,226,9.0,10.0,71,0.00,,,0.00,Wunderground v.1.15,2013-01-29 18:38:00,
2013-01-29 13:39:00,79.0,68.8,30.14,South,190,12.0,12.0,71,0.00,,,0.00,Wunderground v.1.15,2013-01-29 18:39:00,
2013-01-29 13:42:00,78.9,68.3,30.14,SSE,160,10.0,14.0,70,0.00,,,0.00,Wunderground v.1.15,2013-01-29 18:42:00,
2013-01-29 13:44:00,78.8,68.6,30.14,SSE,157,11.0,17.0,71,0.00,,,0.00,Wunderground v.1.15,2013-01-29 18:44:00,
2013-01-29 13:45:00,78.8,68.6,30.14,ESE,122,5.0,17.0,71,0.00,,,0.00,Wunderground v.1.15,2013-01-29 18:45:00,
2013-01-29 13:47:00,78.7,68.5,30.14,South,171,10.0,17.0,71,0.00,,,0.00,Wunderground v.1.15,2013-01-29 18:47:00,
2013-01-29 13:49:00,78.6,68.4,30.14,SW,224,11.0,17.0,71,0.00,,,0.00,Wunderground v.1.15,2013-01-29 18:49:00,
2013-01-29 13:50:00,78.5,68.3,30.14,SSE,165,8.0,14.0,71,0.00,,,0.00,Wunderground v.1.15,2013-01-29 18:50:00,
2013-01-29 13:52:00,78.2,68.0,30.14,SSE,166,8.0,14.0,71,0.00,,,0.00,Wunderground v.1.15,2013-01-29 18:52:00,
2013-01-29 13:54:00,78.1,68.3,30.14,SSE,160,12.0,14.0,72,0.00,,,0.00,Wunderground v.1.15,2013-01-29 18:54:00,
2013-01-29 13:55:00,78.1,68.3,30.14,SSE,147,9.0,14.0,72,0.00,,,0.00,Wunderground v.1.15,2013-01-29 18:55:00,
2013-01-29 13:57:00,78.0,68.2,30.14,SSW,210,7.0,14.0,72,0.00,,,0.00,Wunderground v.1.15,2013-01-29 18:57:00,
2013-01-29 13:59:00,78.1,68.3,30.13,SSW,193,9.0,14.0,72,0.00,,,0.00,Wunderground v.1.15,2013-01-29 18:59:00,
2013-01-29 14:00:00,78.1,68.3,30.13,SW,217,6.0,12.0,72,0.00,,,0.00,Wunderground v.1.15,2013-01-29 19:00:00,
2013-01-29 14:03:00,78.1,68.3,30.13,South,169,6.0,12.0,72,0.00,,,0.00,Wunderground v.1.15,2013-01-29 19:03:00,
2013-01-29 14:05:00,78.1,68.3,30.13,SSE,147,6.0,13.0,72,0.00,,,0.00,Wunderground v.1.15,2013-01-29 19:05:00,
2013-01-29 14:06:00,78.1,68.3,30.13,SSE,155,7.0,13.0,72,0.00,,,0.00,Wunderground v.1.15,2013-01-29 19:06:00,
2013-01-29 14:08:00,78.0,68.2,30.13,SSE,152,8.0,13.0,72,0.00,,,0.00,Wunderground v.1.15,2013-01-29 19:08:00,
2013-01-29 14:10:00,78.0,68.6,30.13,South,180,8.0,16.0,73,0.00,,,0.00,Wunderground v.1.15,2013-01-29 19:10:00,
2013-01-29 14:11:00,78.0,68.2,30.13,SSE,148,8.0,16.0,72,0.00,,,0.00,Wunderground v.1.15,2013-01-29 19:11:00,
2013-01-29 14:13:00,78.0,68.6,30.13,West,262,5.0,16.0,73,0.00,,,0.00,Wunderground v.1.15,2013-01-29 19:13:00,
2013-01-29 14:15:00,77.9,68.1,30.13,SSE,165,12.0,16.0,72,0.00,,,0.00,Wunderground v.1.15,2013-01-29 19:15:00,
2013-01-29 14:16:00,77.9,68.1,30.13,SSE,160,12.0,16.0,72,0.00,,,0.00,Wunderground v.1.15,2013-01-29 19:16:00,
2013-01-29 14:18:00,77.7,68.4,30.13,SSW,193,6.0,16.0,73,0.00,,,0.00,Wunderground v.1.15,2013-01-29 19:18:00,
2013-01-29 14:20:00,77.7,68.4,30.13,SSW,198,11.0,11.0,73,0.00,,,0.00,Wunderground v.1.15,2013-01-29 19:20:00,
2013-01-29 14:21:00,77.7,68.4,30.13,SE,145,7.0,12.0,73,0.00,,,0.00,Wunderground v.1.15,2013-01-29 19:21:00,
2013-01-29 14:22:00,77.7,68.4,30.13,SSE,156,15.0,15.0,73,0.00,,,0.00,Wunderground v.1.15,2013-01-29 19:22:00,
2013-01-29 14:23:00,77.7,68.4,30.13,South,187,7.0,15.0,73,0.00,,,0.00,Wunderground v.1.15,2013-01-29 19:23:00,
2013-01-29 14:25:00,77.7,68.4,30.13,SSE,152,7.0,15.0,73,0.00,,,0.00,Wunderground v.1.15,2013-01-29 19:25:00,
2013-01-29 14:26:00,77.7,68.4,30.13,SSE,165,7.0,15.0,73,0.00,,,0.00,Wunderground v.1.15,2013-01-29 19:26:00,
2013-01-29 14:27:00,77.7,68.4,30.13,South,187,13.0,16.0,73,0.00,,,0.00,Wunderground v.1.15,2013-01-29 19:27:00,
2013-01-29 14:28:00,77.7,68.4,30.13,South,173,12.0,16.0,73,0.00,,,0.00,Wunderground v.1.15,2013-01-29 19:28:00,
2013-01-29 14:30:00,77.7,68.4,30.13,South,170,8.0,11.0,73,0.00,,,0.00,Wunderground v.1.15,2013-01-29 19:30:00,
2013-01-29 14:31:00,77.7,68.4,30.13,SSW,193,6.0,11.0,73,0.00,,,0.00,Wunderground v.1.15,2013-01-29 19:31:00,
2013-01-29 14:32:00,77.7,68.4,30.13,West,259,4.0,11.0,73,0.00,,,0.00,Wunderground v.1.15,2013-01-29 19:32:00,
2013-01-29 14:33:00,77.8,68.4,30.13,SW,214,9.0,11.0,73,0.00,,,0.00,Wunderground v.1.15,2013-01-29 19:33:00,
2013-01-29 14:35:00,77.9,68.5,30.13,SW,235,8.0,11.0,73,0.00,,,0.00,Wunderground v.1.15,2013-01-29 19:35:00,
2013-01-29 14:36:00,77.8,68.4,30.13,South,172,6.0,14.0,73,0.00,,,0.00,Wunderground v.1.15,2013-01-29 19:36:00,
2013-01-29 14:37:00,77.8,68.4,30.13,SW,231,8.0,14.0,73,0.00,,,0.00,Wunderground v.1.15,2013-01-29 19:37:00,
2013-01-29 14:38:00,77.7,68.7,30.13,SSW,194,6.0,14.0,74,0.00,,,0.00,Wunderground v.1.15,2013-01-29 19:38:00,
2013-01-29 14:41:00,77.6,68.7,30.13,SSW,198,5.0,11.0,74,0.00,,,0.00,Wunderground v.1.15,2013-01-29 19:41:00,
2013-01-29 14:42:00,77.5,68.6,30.13,South,187,3.0,11.0,74,0.00,,,0.00,Wunderground v.1.15,2013-01-29 19:42:00,
2013-01-29 14:44:00,77.6,68.7,30.13,South,190,7.0,11.0,74,0.00,,,0.00,Wunderground v.1.15,2013-01-29 19:44:00,
2013-01-29 14:46:00,77.7,68.7,30.13,WSW,238,9.0,11.0,74,0.00,,,0.00,Wunderground v.1.15,2013-01-29 19:46:00,
2013-01-29 14:47:00,77.7,68.7,30.13,South,172,5.0,13.0,74,0.00,,,0.00,Wunderground v.1.15,2013-01-29 19:47:00,
2013-01-29 14:49:00,77.6,68.3,30.13,SSE,158,6.0,16.0,73,0.00,,,0.00,Wunderground v.1.15,2013-01-29 19:49:00,
2013-01-29 14:51:00,77.5,68.6,30.13,South,191,10.0,15.0,74,0.00,,,0.00,Wunderground v.1.15,2013-01-29 19:51:00,
2013-01-29 14:52:00,77.5,68.6,30.13,SSE,149,4.0,15.0,74,0.00,,,0.00,Wunderground v.1.15,2013-01-29 19:52:00,
2013-01-29 14:54:00,77.3,68.4,30.13,SSW,210,5.0,15.0,74,0.00,,,0.00,Wunderground v.1.15,2013-01-29 19:54:00,
2013-01-29 14:56:00,77.2,68.3,30.13,SSW,199,7.0,15.0,74,0.00,,,0.00,Wunderground v.1.15,2013-01-29 19:56:00,
2013-01-29 14:57:00,77.2,68.3,30.13,SE,144,7.0,15.0,74,0.00,,,0.00,Wunderground v.1.15,2013-01-29 19:57:00,
2013-01-29 14:58:00,77.2,68.3,30.13,SSW,193,9.0,15.0,74,0.00,,,0.00,Wunderground v.1.15,2013-01-29 19:58:00,
2013-01-29 15:01:00,76.8,67.9,30.13,South,177,9.0,17.0,74,0.00,,,0.00,Wunderground v.1.15,2013-01-29 20:01:00,
2013-01-29 15:02:00,76.7,67.8,30.13,SSW,193,3.0,17.0,74,0.00,,,0.00,Wunderground v.1.15,2013-01-29 20:02:00,
2013-01-29 15:03:00,76.7,67.8,30.13,SSW,201,5.0,17.0,74,0.00,,,0.00,Wunderground v.1.15,2013-01-29 20:03:00,
2013-01-29 15:06:00,76.6,67.7,30.12,SSW,207,7.0,17.0,74,0.00,,,0.00,Wunderground v.1.15,2013-01-29 20:06:00,
2013-01-29 15:07:00,76.6,68.1,30.12,SSE,155,5.0,17.0,75,0.00,,,0.00,Wunderground v.1.15,2013-01-29 20:07:00,
2013-01-29 15:08:00,76.6,68.1,30.12,SSW,194,4.0,17.0,75,0.00,,,0.00,Wunderground v.1.15,2013-01-29 20:08:00,
2013-01-29 15:11:00,76.8,68.3,30.12,South,179,4.0,11.0,75,0.00,,,0.00,Wunderground v.1.15,2013-01-29 20:11:00,
2013-01-29 15:12:00,76.7,67.8,30.12,South,170,5.0,13.0,74,0.00,,,0.00,Wunderground v.1.15,2013-01-29 20:12:00,
2013-01-29 15:13:00,76.7,67.8,30.12,South,188,5.0,13.0,74,0.00,,,0.00,Wunderground v.1.15,2013-01-29 20:13:00,
2013-01-29 15:16:00,76.5,68.0,30.12,SSE,152,9.0,15.0,75,0.00,,,0.00,Wunderground v.1.15,2013-01-29 20:16:00,
2013-01-29 15:18:00,76.4,67.9,30.12,South,173,8.0,15.0,75,0.00,,,0.00,Wunderground v.1.15,2013-01-29 20:18:00,
2013-01-29 15:21:00,76.4,67.9,30.12,SE,145,4.0,11.0,75,0.00,,,0.00,Wunderground v.1.15,2013-01-29 20:21:00,
2013-01-29 15:23:00,76.4,67.9,30.12,SSW,209,4.0,11.0,75,0.00,,,0.00,Wunderground v.1.15,2013-01-29 20:23:00,
2013-01-29 15:27:00,76.5,68.0,30.12,SSW,212,7.0,12.0,75,0.00,,,0.00,Wunderground v.1.15,2013-01-29 20:27:00,
2013-01-29 15:28:00,76.4,67.9,30.12,SSE,148,9.0,12.0,75,0.00,,,0.00,Wunderground v.1.15,2013-01-29 20:28:00,
2013-01-29 15:32:00,76.2,68.1,30.12,ESE,118,3.0,10.0,76,0.00,,,0.00,Wunderground v.1.15,2013-01-29 20:32:00,
2013-01-29 15:34:00,76.2,68.1,30.12,SSW,194,4.0,10.0,76,0.00,,,0.00,Wunderground v.1.15,2013-01-29 20:34:00,
2013-01-29 15:37:00,76.2,68.1,30.12,SSE,160,3.0,11.0,76,0.00,,,0.00,Wunderground v.1.15,2013-01-29 20:37:00,
2013-01-29 15:39:00,76.1,68.0,30.12,South,187,8.0,11.0,76,0.00,,,0.00,Wunderground v.1.15,2013-01-29 20:39:00,
2013-01-29 15:42:00,75.9,67.8,30.12,SSE,153,6.0,11.0,76,0.00,,,0.00,Wunderground v.1.15,2013-01-29 20:42:00,
2013-01-29 15:44:00,75.9,67.8,30.12,South,184,5.0,12.0,76,0.00,,,0.00,Wunderground v.1.15,2013-01-29 20:44:00,
2013-01-29 15:47:00,75.7,68.0,30.12,SE,134,6.0,14.0,77,0.00,,,0.00,Wunderground v.1.15,2013-01-29 20:47:00,
2013-01-29 15:49:00,75.6,67.9,30.12,SW,221,6.0,14.0,77,0.00,,,0.00,Wunderground v.1.15,2013-01-29 20:49:00,
2013-01-29 15:52:00,75.5,67.8,30.12,SSE,165,6.0,15.0,77,0.00,,,0.00,Wunderground v.1.15,2013-01-29 20:52:00,
2013-01-29 15:54:00,75.4,67.7,30.12,South,183,10.0,15.0,77,0.00,,,0.00,Wunderground v.1.15,2013-01-29 20:54:00,
2013-01-29 16:00:00,75.3,67.6,30.12,SSE,165,8.0,8.0,77,0.00,,,0.00,Wunderground v.1.15,2013-01-29 21:00:00,
2013-01-29 16:01:00,75.2,67.5,30.12,SW,234,5.0,8.0,77,0.00,,,0.00,Wunderground v.1.15,2013-01-29 21:01:00,
2013-01-29 16:02:00,75.2,67.5,30.12,SSW,193,4.0,8.0,77,0.00,,,0.00,Wunderground v.1.15,2013-01-29 21:02:00,
2013-01-29 16:05:00,75.2,67.5,30.12,SSW,195,9.0,13.0,77,0.00,,,0.00,Wunderground v.1.15,2013-01-29 21:05:00,
2013-01-29 16:08:00,75.2,67.9,30.12,SW,222,10.0,13.0,78,0.00,,,0.00,Wunderground v.1.15,2013-01-29 21:08:00,
2013-01-29 16:09:00,75.2,67.9,30.12,SE,141,5.0,7.0,78,0.00,,,0.00,Wunderground v.1.15,2013-01-29 21:09:00,
2013-01-29 16:11:00,75.1,67.8,30.12,SSW,201,6.0,7.0,78,0.00,,,0.00,Wunderground v.1.15,2013-01-29 21:11:00,
2013-01-29 16:13:00,75.1,67.8,30.12,SSE,148,8.0,8.0,78,0.00,,,0.00,Wunderground v.1.15,2013-01-29 21:13:00,
2013-01-29 16:15:00,75.1,67.8,30.12,SW,217,5.0,8.0,78,0.00,,,0.00,Wunderground v.1.15,2013-01-29 21:15:00,
2013-01-29 16:16:00,75.1,67.8,30.12,South,179,5.0,8.0,78,0.00,,,0.00,Wunderground v.1.15,2013-01-29 21:16:00,
2013-01-29 16:19:00,75.0,67.7,30.12,SW,233,5.0,8.0,78,0.00,,,0.00,Wunderground v.1.15,2013-01-29 21:19:00,
2013-01-29 16:21:00,75.0,67.7,30.12,SSW,203,3.0,6.0,78,0.00,,,0.00,Wunderground v.1.15,2013-01-29 21:21:00,
2013-01-29 16:22:00,75.0,67.7,30.12,SE,142,8.0,8.0,78,0.00,,,0.00,Wunderground v.1.15,2013-01-29 21:22:00,
2013-01-29 16:23:00,75.0,67.7,30.12,SSW,202,8.0,8.0,78,0.00,,,0.00,Wunderground v.1.15,2013-01-29 21:23:00,
2013-01-29 16:25:00,75.0,67.7,30.12,SSW,193,7.0,14.0,78,0.00,,,0.00,Wunderground v.1.15,2013-01-29 21:25:00,
2013-01-29 16:27:00,74.9,67.6,30.12,SSW,210,4.0,14.0,78,0.00,,,0.00,Wunderground v.1.15,2013-01-29 21:27:00,
2013-01-29 16:28:00,74.9,67.6,30.12,South,178,4.0,14.0,78,0.00,,,0.00,Wunderground v.1.15,2013-01-29 21:28:00,
2013-01-29 16:30:00,74.8,67.5,30.12,South,183,5.0,10.0,78,0.00,,,0.00,Wunderground v.1.15,2013-01-29 21:30:00,
2013-01-29 16:32:00,74.8,67.5,30.12,South,170,5.0,10.0,78,0.00,,,0.00,Wunderground v.1.15,2013-01-29 21:32:00,
2013-01-29 16:33:00,74.7,67.4,30.12,SSW,198,8.0,11.0,78,0.00,,,0.00,Wunderground v.1.15,2013-01-29 21:33:00,
2013-01-29 16:35:00,74.8,67.5,30.12,SW,236,3.0,13.0,78,0.00,,,0.00,Wunderground v.1.15,2013-01-29 21:35:00,
2013-01-29 16:37:00,74.8,67.5,30.12,SW,221,11.0,13.0,78,0.00,,,0.00,Wunderground v.1.15,2013-01-29 21:37:00,
2013-01-29 16:39:00,74.8,67.5,30.12,ESE,117,3.0,13.0,78,0.00,,,0.00,Wunderground v.1.15,2013-01-29 21:39:00,
2013-01-29 16:40:00,74.7,67.4,30.12,SE,144,11.0,13.0,78,0.00,,,0.00,Wunderground v.1.15,2013-01-29 21:40:00,
2013-01-29 16:42:00,74.7,67.4,30.12,SE,134,6.0,15.0,78,0.00,,,0.00,Wunderground v.1.15,2013-01-29 21:42:00,
2013-01-29 16:43:00,74.7,67.4,30.12,SSE,155,7.0,15.0,78,0.00,,,0.00,Wunderground v.1.15,2013-01-29 21:43:00,
2013-01-29 16:44:00,74.8,67.5,30.12,SSE,160,3.0,15.0,78,0.00,,,0.00,Wunderground v.1.15,2013-01-29 21:44:00,
2013-01-29 16:45:00,74.7,67.4,30.12,South,175,7.0,15.0,78,0.00,,,0.00,Wunderground v.1.15,2013-01-29 21:45:00,
2013-01-29 16:47:00,74.7,67.4,30.12,South,175,3.0,15.0,78,0.00,,,0.00,Wunderground v.1.15,2013-01-29 21:47:00,
2013-01-29 16:48:00,74.7,67.4,30.12,South,172,4.0,15.0,78,0.00,,,0.00,Wunderground v.1.15,2013-01-29 21:48:00,
2013-01-29 16:49:00,74.6,67.3,30.12,SSW,194,8.0,15.0,78,0.00,,,0.00,Wunderground v.1.15,2013-01-29 21:49:00,
2013-01-29 16:50:00,74.6,67.3,30.12,SSE,167,4.0,9.0,78,0.00,,,0.00,Wunderground v.1.15,2013-01-29 21:50:00,
2013-01-29 16:53:00,74.4,67.1,30.12,South,181,7.0,9.0,78,0.00,,,0.00,Wunderground v.1.15,2013-01-29 21:53:00,
2013-01-29 16:54:00,74.4,67.1,30.11,SSW,199,3.0,11.0,78,0.00,,,0.00,Wunderground v.1.15,2013-01-29 21:54:00,
2013-01-29 16:55:00,74.4,67.5,30.11,SSE,163,2.0,11.0,79,0.00,,,0.00,Wunderground v.1.15,2013-01-29 21:55:00,
2013-01-29 16:58:00,74.5,67.6,30.11,SSW,194,5.0,11.0,79,0.00,,,0.00,Wunderground v.1.15,2013-01-29 21:58:00,
2013-01-29 16:59:00,74.5,67.6,30.11,SE,133,3.0,11.0,79,0.00,,,0.00,Wunderground v.1.15,2013-01-29 21:59:00,
2013-01-29 17:00:00,74.6,67.3,30.11,SSW,199,4.0,11.0,78,0.00,,,0.00,Wunderground v.1.15,2013-01-29 22:00:00,
2013-01-29 17:03:00,74.8,67.8,30.11,SW,222,5.0,11.0,79,0.00,,,0.00,Wunderground v.1.15,2013-01-29 22:03:00,
2013-01-29 17:04:00,74.8,67.5,30.11,SSW,207,3.0,11.0,78,0.00,,,0.00,Wunderground v.1.15,2013-01-29 22:04:00,
2013-01-29 17:05:00,74.9,67.6,30.11,SE,144,7.0,11.0,78,0.00,,,0.00,Wunderground v.1.15,2013-01-29 22:05:00,
2013-01-29 17:08:00,75.0,67.7,30.11,SSE,150,10.0,11.0,78,0.00,,,0.00,Wunderground v.1.15,2013-01-29 22:08:00,
2013-01-29 17:10:00,75.0,67.7,30.11,South,184,7.0,7.0,78,0.00,,,0.00,Wunderground v.1.15,2013-01-29 22:10:00,
2013-01-29 17:13:00,75.2,67.9,30.11,SE,143,5.0,8.0,78,0.00,,,0.00,Wunderground v.1.15,2013-01-29 22:13:00,
2013-01-29 17:14:00,75.3,67.6,30.11,SSE,165,9.0,12.0,77,0.00,,,0.00,Wunderground v.1.15,2013-01-29 22:14:00,
2013-01-29 17:15:00,75.2,67.5,30.11,SW,217,5.0,12.0,77,0.00,,,0.00,Wunderground v.1.15,2013-01-29 22:15:00,
2013-01-29 17:18:00,75.2,67.5,30.11,SSE,147,5.0,12.0,77,0.00,,,0.00,Wunderground v.1.15,2013-01-29 22:18:00,
2013-01-29 17:19:00,75.2,67.5,30.11,SE,143,5.0,12.0,77,0.00,,,0.00,Wunderground v.1.15,2013-01-29 22:19:00,
2013-01-29 17:20:00,75.1,67.4,30.11,SSE,155,12.0,14.0,77,0.00,,,0.00,Wunderground v.1.15,2013-01-29 22:20:00,
2013-01-29 17:24:00,75.0,67.7,30.11,SE,138,7.0,14.0,78,0.00,,,0.00,Wunderground v.1.15,2013-01-29 22:24:00,
2013-01-29 17:25:00,75.0,67.7,30.11,SE,128,5.0,14.0,78,0.00,,,0.00,Wunderground v.1.15,2013-01-29 22:25:00,
2013-01-29 17:26:00,74.9,67.6,30.11,South,191,7.0,14.0,78,0.00,,,0.00,Wunderground v.1.15,2013-01-29 22:26:00,
2013-01-29 17:29:00,74.8,67.5,30.11,South,173,1.0,14.0,78,0.00,,,0.00,Wunderground v.1.15,2013-01-29 22:29:00,
2013-01-29 17:30:00,74.7,67.4,30.11,SSE,166,3.0,8.0,78,0.00,,,0.00,Wunderground v.1.15,2013-01-29 22:30:00,
2013-01-29 17:31:00,74.7,67.4,30.11,SSW,197,5.0,10.0,78,0.00,,,0.00,Wunderground v.1.15,2013-01-29 22:31:00,
2013-01-29 17:34:00,74.6,67.3,30.11,South,183,4.0,10.0,78,0.00,,,0.00,Wunderground v.1.15,2013-01-29 22:34:00,
2013-01-29 17:35:00,74.6,67.3,30.11,SE,125,6.0,10.0,78,0.00,,,0.00,Wunderground v.1.15,2013-01-29 22:35:00,
2013-01-29 17:36:00,74.5,67.6,30.11,South,170,7.0,11.0,79,0.00,,,0.00,Wunderground v.1.15,2013-01-29 22:36:00,
2013-01-29 17:39:00,74.4,67.5,30.11,South,183,6.0,11.0,79,0.00,,,0.00,Wunderground v.1.15,2013-01-29 22:39:00,
2013-01-29 17:40:00,74.3,67.4,30.11,SSW,197,4.0,10.0,79,0.00,,,0.00,Wunderground v.1.15,2013-01-29 22:40:00,
2013-01-29 17:41:00,74.2,67.3,30.11,SSE,152,5.0,10.0,79,0.00,,,0.00,Wunderground v.1.15,2013-01-29 22:41:00,
2013-01-29 17:44:00,74.1,67.5,30.12,South,181,2.0,11.0,80,0.00,,,0.00,Wunderground v.1.15,2013-01-29 22:44:00,
2013-01-29 17:45:00,74.1,67.5,30.12,SSE,162,4.0,11.0,80,0.00,,,0.00,Wunderground v.1.15,2013-01-29 22:45:00,
2013-01-29 17:46:00,74.0,67.4,30.12,SSE,148,6.0,11.0,80,0.00,,,0.00,Wunderground v.1.15,2013-01-29 22:46:00,
2013-01-29 17:49:00,73.9,67.3,30.12,SE,139,3.0,5.0,80,0.00,,,0.00,Wunderground v.1.15,2013-01-29 22:49:00,
2013-01-29 17:51:00,73.8,67.2,30.12,SSE,158,2.0,7.0,80,0.00,,,0.00,Wunderground v.1.15,2013-01-29 22:51:00,
2013-01-29 17:55:00,73.6,67.4,30.11,SSW,198,6.0,10.0,81,0.00,,,0.00,Wunderground v.1.15,2013-01-29 22:55:00,
2013-01-29 17:56:00,73.6,67.4,30.11,SSE,155,7.0,10.0,81,0.00,,,0.00,Wunderground v.1.15,2013-01-29 22:56:00,
2013-01-29 17:57:00,73.5,67.3,30.11,South,190,5.0,10.0,81,0.00,,,0.00,Wunderground v.1.15,2013-01-29 22:57:00,
2013-01-29 18:00:00,73.3,67.5,30.11,South,181,4.0,9.0,82,0.00,,,0.00,Wunderground v.1.15,2013-01-29 23:00:00,
2013-01-29 18:01:00,73.3,67.5,30.11,SSE,153,5.0,9.0,82,0.00,,,0.00,Wunderground v.1.15,2013-01-29 23:01:00,
2013-01-29 18:02:00,73.2,67.4,30.11,SSE,166,3.0,9.0,82,0.00,,,0.00,Wunderground v.1.15,2013-01-29 23:02:00,
2013-01-29 18:05:00,73.0,67.2,30.11,South,184,6.0,9.0,82,0.00,,,0.00,Wunderground v.1.15,2013-01-29 23:05:00,
2013-01-29 18:06:00,72.9,67.1,30.11,SSE,160,2.0,9.0,82,0.00,,,0.00,Wunderground v.1.15,2013-01-29 23:06:00,
2013-01-29 18:07:00,72.9,67.4,30.11,ESE,113,5.0,9.0,83,0.00,,,0.00,Wunderground v.1.15,2013-01-29 23:07:00,
2013-01-29 18:10:00,72.7,67.2,30.11,East,95,4.0,4.0,83,0.00,,,0.00,Wunderground v.1.15,2013-01-29 23:10:00,
2013-01-29 18:11:00,72.7,67.2,30.11,South,183,3.0,8.0,83,0.00,,,0.00,Wunderground v.1.15,2013-01-29 23:11:00,
2013-01-29 18:12:00,72.6,67.1,30.11,SE,138,3.0,8.0,83,0.00,,,0.00,Wunderground v.1.15,2013-01-29 23:12:00,
2013-01-29 18:16:00,72.4,67.3,30.11,SSE,153,3.0,12.0,84,0.00,,,0.00,Wunderground v.1.15,2013-01-29 23:16:00,
2013-01-29 18:17:00,72.4,67.3,30.11,SE,139,7.0,12.0,84,0.00,,,0.00,Wunderground v.1.15,2013-01-29 23:17:00,
2013-01-29 18:21:00,72.3,67.2,30.11,SSE,159,4.0,7.0,84,0.00,,,0.00,Wunderground v.1.15,2013-01-29 23:21:00,
2013-01-29 18:23:00,72.3,67.2,30.11,SE,137,4.0,7.0,84,0.00,,,0.00,Wunderground v.1.15,2013-01-29 23:23:00,
2013-01-29 18:26:00,72.2,67.1,30.11,SE,135,2.0,7.0,84,0.00,,,0.00,Wunderground v.1.15,2013-01-29 23:26:00,
2013-01-29 18:28:00,72.1,67.3,30.11,ESE,121,4.0,9.0,85,0.00,,,0.00,Wunderground v.1.15,2013-01-29 23:28:00,
2013-01-29 18:31:00,72.1,67.3,30.11,SW,215,3.0,6.0,85,0.00,,,0.00,Wunderground v.1.15,2013-01-29 23:31:00,
2013-01-29 18:32:00,72.1,67.3,30.11,SSE,159,5.0,6.0,85,0.00,,,0.00,Wunderground v.1.15,2013-01-29 23:32:00,
2013-01-29 18:34:00,72.0,67.2,30.11,SE,144,5.0,7.0,85,0.00,,,0.00,Wunderground v.1.15,2013-01-29 23:34:00,
2013-01-29 18:36:00,72.0,67.2,30.11,SE,146,5.0,7.0,85,0.00,,,0.00,Wunderground v.1.15,2013-01-29 23:36:00,
2013-01-29 18:37:00,72.0,67.2,30.11,SE,143,1.0,7.0,85,0.00,,,0.00,Wunderground v.1.15,2013-01-29 23:37:00,
2013-01-29 18:39:00,71.9,67.1,30.11,SSW,210,4.0,7.0,85,0.00,,,0.00,Wunderground v.1.15,2013-01-29 23:39:00,
2013-01-29 18:42:00,71.9,67.1,30.12,SSE,158,4.0,8.0,85,0.00,,,0.00,Wunderground v.1.15,2013-01-29 23:42:00,
2013-01-29 18:44:00,71.8,67.0,30.12,SE,134,3.0,8.0,85,0.00,,,0.00,Wunderground v.1.15,2013-01-29 23:44:00,
2013-01-29 18:47:00,71.8,67.0,30.12,SE,134,3.0,8.0,85,0.00,,,0.00,Wunderground v.1.15,2013-01-29 23:47:00,
2013-01-29 18:49:00,71.8,67.0,30.12,SSE,152,4.0,8.0,85,0.00,,,0.00,Wunderground v.1.15,2013-01-29 23:49:00,
2013-01-29 18:52:00,71.7,67.3,30.12,South,173,2.0,6.0,86,0.00,,,0.00,Wunderground v.1.15,2013-01-29 23:52:00,
2013-01-29 18:54:00,71.7,67.3,30.12,SE,145,4.0,7.0,86,0.00,,,0.00,Wunderground v.1.15,2013-01-29 23:54:00,
2013-01-29 18:57:00,71.7,67.3,30.12,ESE,115,3.0,8.0,86,0.00,,,0.00,Wunderground v.1.15,2013-01-29 23:57:00,
2013-01-29 18:59:00,71.7,67.3,30.12,SSW,212,2.0,8.0,86,0.00,,,0.00,Wunderground v.1.15,2013-01-29 23:59:00,
2013-01-29 19:02:00,71.7,67.3,30.12,SE,136,2.0,5.0,86,0.00,,,0.00,Wunderground v.1.15,2013-01-30 00:02:00,
2013-01-29 19:04:00,71.7,67.3,30.12,SSE,159,5.0,7.0,86,0.00,,,0.00,Wunderground v.1.15,2013-01-30 00:04:00,
2013-01-29 19:07:00,71.6,67.2,30.12,SSE,150,4.0,7.0,86,0.00,,,0.00,Wunderground v.1.15,2013-01-30 00:07:00,
2013-01-29 19:08:00,71.7,67.3,30.12,ESE,115,3.0,7.0,86,0.00,,,0.00,Wunderground v.1.15,2013-01-30 00:08:00,
2013-01-29 19:10:00,71.7,67.3,30.13,South,187,4.0,4.0,86,0.00,,,0.00,Wunderground v.1.15,2013-01-30 00:10:00,
2013-01-29 19:13:00,71.7,67.3,30.13,South,176,2.0,5.0,86,0.00,,,0.00,Wunderground v.1.15,2013-01-30 00:13:00,
2013-01-29 19:15:00,71.7,67.3,30.12,SE,143,2.0,6.0,86,0.00,,,0.00,Wunderground v.1.15,2013-01-30 00:15:00,
2013-01-29 19:18:00,71.8,67.4,30.12,SSE,152,3.0,8.0,86,0.00,,,0.00,Wunderground v.1.15,2013-01-30 00:18:00,
2013-01-29 19:20:00,71.8,67.4,30.12,SE,135,2.0,4.0,86,0.00,,,0.00,Wunderground v.1.15,2013-01-30 00:20:00,
2013-01-29 19:23:00,71.8,67.4,30.12,SSE,158,3.0,9.0,86,0.00,,,0.00,Wunderground v.1.15,2013-01-30 00:23:00,
2013-01-29 19:25:00,71.8,67.4,30.12,East,101,4.0,9.0,86,0.00,,,0.00,Wunderground v.1.15,2013-01-30 00:25:00,
2013-01-29 19:28:00,71.7,67.3,30.12,SSE,156,8.0,9.0,86,0.00,,,0.00,Wunderground v.1.15,2013-01-30 00:28:00,
2013-01-29 19:29:00,71.8,67.4,30.12,SSE,158,9.0,9.0,86,0.00,,,0.00,Wunderground v.1.15,2013-01-30 00:29:00,
2013-01-29 19:30:00,71.7,67.3,30.12,ESE,121,3.0,5.0,86,0.00,,,0.00,Wunderground v.1.15,2013-01-30 00:30:00,
2013-01-29 19:33:00,71.7,67.3,30.12,SSE,150,8.0,8.0,86,0.00,,,0.00,Wunderground v.1.15,2013-01-30 00:33:00,
2013-01-29 19:34:00,71.7,67.3,30.12,ESE,112,8.0,8.0,86,0.00,,,0.00,Wunderground v.1.15,2013-01-30 00:34:00,
2013-01-29 19:35:00,71.7,67.3,30.12,South,170,3.0,8.0,86,0.00,,,0.00,Wunderground v.1.15,2013-01-30 00:35:00,
2013-01-29 19:39:00,71.6,67.2,30.12,SE,131,1.0,8.0,86,0.00,,,0.00,Wunderground v.1.15,2013-01-30 00:39:00,
2013-01-29 19:40:00,71.6,67.5,30.12,ESE,121,4.0,6.0,87,0.00,,,0.00,Wunderground v.1.15,2013-01-30 00:40:00,
2013-01-29 19:44:00,71.5,67.4,30.12,ESE,110,6.0,8.0,87,0.00,,,0.00,Wunderground v.1.15,2013-01-30 00:44:00,
2013-01-29 19:45:00,71.5,67.4,30.12,ESE,104,2.0,8.0,87,0.00,,,0.00,Wunderground v.1.15,2013-01-30 00:45:00,
2013-01-29 19:49:00,71.4,67.3,30.12,ESE,115,3.0,8.0,87,0.00,,,0.00,Wunderground v.1.15,2013-01-30 00:49:00,
2013-01-29 19:51:00,71.4,67.3,30.12,East,92,4.0,7.0,87,0.00,,,0.00,Wunderground v.1.15,2013-01-30 00:51:00,
2013-01-29 19:54:00,71.4,67.3,30.12,SE,142,4.0,7.0,87,0.00,,,0.00,Wunderground v.1.15,2013-01-30 00:54:00,
2013-01-29 19:56:00,71.4,67.3,30.12,SE,134,3.0,7.0,87,0.00,,,0.00,Wunderground v.1.15,2013-01-30 00:56:00,
2013-01-29 19:59:00,71.4,67.0,30.12,SE,137,6.0,9.0,86,0.00,,,0.00,Wunderground v.1.15,2013-01-30 00:59:00,
2013-01-29 20:01:00,71.4,67.0,30.12,SSE,155,4.0,6.0,86,0.00,,,0.00,Wunderground v.1.15,2013-01-30 01:01:00,
2013-01-29 20:04:00,71.4,67.0,30.12,ESE,120,5.0,8.0,86,0.00,,,0.00,Wunderground v.1.15,2013-01-30 01:04:00,
2013-01-29 20:06:00,71.5,67.1,30.12,ESE,111,4.0,8.0,86,0.00,,,0.00,Wunderground v.1.15,2013-01-30 01:06:00,
2013-01-29 20:09:00,71.5,67.1,30.13,SSE,162,2.0,8.0,86,0.00,,,0.00,Wunderground v.1.15,2013-01-30 01:09:00,
2013-01-29 20:11:00,71.5,67.1,30.12,ESE,121,4.0,5.0,86,0.00,,,0.00,Wunderground v.1.15,2013-01-30 01:11:00,
2013-01-29 20:14:00,71.5,67.1,30.12,SE,131,3.0,6.0,86,0.00,,,0.00,Wunderground v.1.15,2013-01-30 01:14:00,
2013-01-29 20:16:00,71.6,67.2,30.12,SE,146,1.0,6.0,86,0.00,,,0.00,Wunderground v.1.15,2013-01-30 01:16:00,
2013-01-29 20:19:00,71.6,67.2,30.13,SSE,168,3.0,6.0,86,0.00,,,0.00,Wunderground v.1.15,2013-01-30 01:19:00,
2013-01-29 20:21:00,71.6,67.5,30.12,SE,146,6.0,8.0,87,0.00,,,0.00,Wunderground v.1.15,2013-01-30 01:21:00,
2013-01-29 20:24:00,71.6,67.5,30.12,SSE,158,5.0,9.0,87,0.00,,,0.00,Wunderground v.1.15,2013-01-30 01:24:00,
2013-01-29 20:25:00,71.6,67.5,30.12,SSE,165,4.0,9.0,87,0.00,,,0.00,Wunderground v.1.15,2013-01-30 01:25:00,
2013-01-29 20:26:00,71.6,67.5,30.12,SSE,165,4.0,9.0,87,0.00,,,0.00,Wunderground v.1.15,2013-01-30 01:26:00,
2013-01-29 20:29:00,71.6,67.5,30.12,SSW,197,1.0,9.0,87,0.00,,,0.00,Wunderground v.1.15,2013-01-30 01:29:00,
2013-01-29 20:30:00,71.6,67.5,30.12,South,184,2.0,4.0,87,0.00,,,0.00,Wunderground v.1.15,2013-01-30 01:30:00,
2013-01-29 20:31:00,71.6,67.5,30.12,ESE,102,3.0,5.0,87,0.00,,,0.00,Wunderground v.1.15,2013-01-30 01:31:00,
2013-01-29 20:34:00,71.6,67.5,30.12,SE,136,2.0,8.0,87,0.00,,,0.00,Wunderground v.1.15,2013-01-30 01:34:00,
2013-01-29 20:35:00,71.6,67.5,30.12,SSE,148,3.0,8.0,87,0.00,,,0.00,Wunderground v.1.15,2013-01-30 01:35:00,
2013-01-29 20:36:00,71.6,67.5,30.12,SE,137,2.0,8.0,87,0.00,,,0.00,Wunderground v.1.15,2013-01-30 01:36:00,
2013-01-29 20:40:00,71.6,67.5,30.12,SE,146,3.0,4.0,87,0.00,,,0.00,Wunderground v.1.15,2013-01-30 01:40:00,
2013-01-29 20:41:00,71.6,67.5,30.12,SE,143,3.0,7.0,87,0.00,,,0.00,Wunderground v.1.15,2013-01-30 01:41:00,
2013-01-29 20:45:00,71.5,67.4,30.12,SSE,153,5.0,7.0,87,0.00,,,0.00,Wunderground v.1.15,2013-01-30 01:45:00,
2013-01-29 20:46:00,71.5,67.4,30.12,ESE,110,4.0,7.0,87,0.00,,,0.00,Wunderground v.1.15,2013-01-30 01:46:00,
2013-01-29 20:50:00,71.5,67.4,30.12,SE,146,6.0,7.0,87,0.00,,,0.00,Wunderground v.1.15,2013-01-30 01:50:00,
2013-01-29 20:51:00,71.5,67.4,30.12,SE,134,5.0,9.0,87,0.00,,,0.00,Wunderground v.1.15,2013-01-30 01:51:00,
2013-01-29 20:55:00,71.5,67.4,30.12,SE,139,3.0,11.0,87,0.00,,,0.00,Wunderground v.1.15,2013-01-30 01:55:00,
2013-01-29 20:56:00,71.5,67.4,30.12,SE,126,7.0,11.0,87,0.00,,,0.00,Wunderground v.1.15,2013-01-30 01:56:00,
2013-01-29 21:00:00,71.5,67.4,30.12,SSE,160,4.0,6.0,87,0.00,,,0.00,Wunderground v.1.15,2013-01-30 02:00:00,
2013-01-29 21:02:00,71.6,67.5,30.12,SSE,168,4.0,6.0,87,0.00,,,0.00,Wunderground v.1.15,2013-01-30 02:02:00,
2013-01-29 21:05:00,71.6,67.5,30.12,ESE,123,5.0,7.0,87,0.00,,,0.00,Wunderground v.1.15,2013-01-30 02:05:00,
2013-01-29 21:07:00,71.6,67.5,30.12,SE,136,6.0,8.0,87,0.00,,,0.00,Wunderground v.1.15,2013-01-30 02:07:00,
2013-01-29 21:10:00,71.7,67.6,30.12,SE,128,1.0,4.0,87,0.00,,,0.00,Wunderground v.1.15,2013-01-30 02:10:00,
2013-01-29 21:12:00,71.7,67.6,30.12,ESE,105,2.0,5.0,87,0.00,,,0.00,Wunderground v.1.15,2013-01-30 02:12:00,
2013-01-29 21:15:00,71.7,67.6,30.12,SE,131,4.0,8.0,87,0.00,,,0.00,Wunderground v.1.15,2013-01-30 02:15:00,
2013-01-29 21:16:00,71.7,67.6,30.12,East,96,3.0,8.0,87,0.00,,,0.00,Wunderground v.1.15,2013-01-30 02:16:00,
2013-01-29 21:17:00,71.7,67.3,30.12,ESE,108,4.0,8.0,86,0.00,,,0.00,Wunderground v.1.15,2013-01-30 02:17:00,
2013-01-29 21:21:00,71.7,67.6,30.12,SE,137,3.0,8.0,87,0.00,,,0.00,Wunderground v.1.15,2013-01-30 02:21:00,
2013-01-29 21:22:00,71.7,67.6,30.12,South,176,4.0,8.0,87,0.00,,,0.00,Wunderground v.1.15,2013-01-30 02:22:00,
2013-01-29 21:26:00,71.6,67.5,30.12,ESE,104,2.0,8.0,87,0.00,,,0.00,Wunderground v.1.15,2013-01-30 02:26:00,
2013-01-29 21:28:00,71.6,67.5,30.12,SE,124,3.0,8.0,87,0.00,,,0.00,Wunderground v.1.15,2013-01-30 02:28:00,
2013-01-29 21:31:00,71.5,67.4,30.12,ESE,117,5.0,6.0,87,0.00,,,0.00,Wunderground v.1.15,2013-01-30 02:31:00,
2013-01-29 21:33:00,71.5,67.4,30.11,ESE,109,1.0,7.0,87,0.00,,,0.00,Wunderground v.1.15,2013-01-30 02:33:00,
2013-01-29 21:36:00,71.4,67.3,30.11,SSE,155,4.0,7.0,87,0.00,,,0.00,Wunderground v.1.15,2013-01-30 02:36:00,
2013-01-29 21:38:00,71.4,67.3,30.11,ESE,121,4.0,7.0,87,0.00,,,0.00,Wunderground v.1.15,2013-01-30 02:38:00,
2013-01-29 21:41:00,71.3,67.2,30.11,East,98,2.0,3.0,87,0.00,,,0.00,Wunderground v.1.15,2013-01-30 02:41:00,
2013-01-29 21:44:00,71.2,67.1,30.11,SE,143,1.0,4.0,87,0.00,,,0.00,Wunderground v.1.15,2013-01-30 02:44:00,
2013-01-29 21:46:00,71.2,67.5,30.11,SE,142,4.0,7.0,88,0.00,,,0.00,Wunderground v.1.15,2013-01-30 02:46:00,
2013-01-29 21:47:00,71.2,67.5,30.11,ESE,114,4.0,7.0,88,0.00,,,0.00,Wunderground v.1.15,2013-01-30 02:47:00,
2013-01-29 21:49:00,71.1,67.4,30.11,ESE,119,5.0,7.0,88,0.00,,,0.00,Wunderground v.1.15,2013-01-30 02:49:00,
2013-01-29 21:51:00,71.1,67.4,30.11,East,86,4.0,8.0,88,0.00,,,0.00,Wunderground v.1.15,2013-01-30 02:51:00,
2013-01-29 21:52:00,71.1,67.4,30.11,SE,125,2.0,8.0,88,0.00,,,0.00,Wunderground v.1.15,2013-01-30 02:52:00,
2013-01-29 21:54:00,71.0,67.3,30.11,ESE,105,4.0,8.0,88,0.00,,,0.00,Wunderground v.1.15,2013-01-30 02:54:00,
2013-01-29 21:56:00,71.0,67.3,30.11,ESE,115,3.0,8.0,88,0.00,,,0.00,Wunderground v.1.15,2013-01-30 02:56:00,
2013-01-29 21:57:00,70.9,67.2,30.10,East,101,5.0,8.0,88,0.00,,,0.00,Wunderground v.1.15,2013-01-30 02:57:00,
2013-01-29 21:59:00,70.9,67.2,30.10,ESE,123,4.0,8.0,88,0.00,,,0.00,Wunderground v.1.15,2013-01-30 02:59:00,
2013-01-29 22:01:00,70.9,67.2,30.10,South,190,2.0,4.0,88,0.00,,,0.00,Wunderground v.1.15,2013-01-30 03:01:00,
2013-01-29 22:02:00,70.8,67.1,30.10,ESE,117,1.0,4.0,88,0.00,,,0.00,Wunderground v.1.15,2013-01-30 03:02:00,
2013-01-29 22:04:00,70.8,67.1,30.11,SE,124,6.0,6.0,88,0.00,,,0.00,Wunderground v.1.15,2013-01-30 03:04:00,
2013-01-29 22:06:00,70.8,67.1,30.11,ENE,60,3.0,6.0,88,0.00,,,0.00,Wunderground v.1.15,2013-01-30 03:06:00,
2013-01-29 22:07:00,70.8,67.1,30.11,East,91,2.0,6.0,88,0.00,,,0.00,Wunderground v.1.15,2013-01-30 03:07:00,
2013-01-29 22:09:00,70.9,67.2,30.11,SE,129,2.0,6.0,88,0.00,,,0.00,Wunderground v.1.15,2013-01-30 03:09:00,
2013-01-29 22:12:00,70.8,67.1,30.11,SE,134,2.0,4.0,88,0.00,,,0.00,Wunderground v.1.15,2013-01-30 03:12:00,
2013-01-29 22:13:00,70.8,67.1,30.11,SE,136,3.0,4.0,88,0.00,,,0.00,Wunderground v.1.15,2013-01-30 03:13:00,
2013-01-29 22:14:00,70.8,67.1,30.10,ESE,109,0.0,4.0,88,0.00,,,0.00,Wunderground v.1.15,2013-01-30 03:14:00,
2013-01-29 22:17:00,70.7,67.3,30.10,ESE,121,1.0,4.0,89,0.00,,,0.00,Wunderground v.1.15,2013-01-30 03:17:00,
2013-01-29 22:18:00,70.7,67.3,30.11,ESE,114,3.0,4.0,89,0.00,,,0.00,Wunderground v.1.15,2013-01-30 03:18:00,
2013-01-29 22:19:00,70.7,67.3,30.11,East,85,2.0,4.0,89,0.00,,,0.00,Wunderground v.1.15,2013-01-30 03:19:00,
2013-01-29 22:22:00,70.6,67.2,30.11,East,94,2.0,3.0,89,0.00,,,0.00,Wunderground v.1.15,2013-01-30 03:22:00,
2013-01-29 22:23:00,70.6,67.2,30.11,East,86,3.0,3.0,89,0.00,,,0.00,Wunderground v.1.15,2013-01-30 03:23:00,
2013-01-29 22:24:00,70.5,67.1,30.11,East,96,3.0,3.0,89,0.00,,,0.00,Wunderground v.1.15,2013-01-30 03:24:00,
2013-01-29 22:27:00,70.4,67.0,30.11,SE,124,0.0,4.0,89,0.00,,,0.00,Wunderground v.1.15,2013-01-30 03:27:00,
2013-01-29 22:28:00,70.3,66.9,30.11,SE,133,1.0,4.0,89,0.00,,,0.00,Wunderground v.1.15,2013-01-30 03:28:00,
2013-01-29 22:29:00,70.3,66.9,30.11,ESE,108,1.0,4.0,89,0.00,,,0.00,Wunderground v.1.15,2013-01-30 03:29:00,
2013-01-29 22:32:00,70.1,66.7,30.11,ESE,109,1.0,4.0,89,0.00,,,0.00,Wunderground v.1.15,2013-01-30 03:32:00,
2013-01-29 22:33:00,70.1,66.7,30.11,ESE,113,2.0,4.0,89,0.00,,,0.00,Wunderground v.1.15,2013-01-30 03:33:00,
2013-01-29 22:35:00,70.0,66.6,30.11,East,97,1.0,4.0,89,0.00,,,0.00,Wunderground v.1.15,2013-01-30 03:35:00,
2013-01-29 22:37:00,69.9,66.5,30.11,SE,133,1.0,4.0,89,0.00,,,0.00,Wunderground v.1.15,2013-01-30 03:37:00,
2013-01-29 22:38:00,69.9,66.5,30.11,East,98,4.0,4.0,89,0.00,,,0.00,Wunderground v.1.15,2013-01-30 03:38:00,
2013-01-29 22:40:00,69.8,66.7,30.11,ESE,115,0.0,2.0,90,0.00,,,0.00,Wunderground v.1.15,2013-01-30 03:40:00,
2013-01-29 22:42:00,69.7,66.6,30.11,SE,136,1.0,3.0,90,0.00,,,0.00,Wunderground v.1.15,2013-01-30 03:42:00,
2013-01-29 22:43:00,69.7,66.6,30.11,ESE,121,2.0,3.0,90,0.00,,,0.00,Wunderground v.1.15,2013-01-30 03:43:00,
2013-01-29 22:44:00,69.6,66.5,30.11,ESE,121,1.0,3.0,90,0.00,,,0.00,Wunderground v.1.15,2013-01-30 03:44:00,
2013-01-29 22:45:00,69.6,66.5,30.11,SE,133,2.0,3.0,90,0.00,,,0.00,Wunderground v.1.15,2013-01-30 03:45:00,
2013-01-29 22:47:00,69.5,66.4,30.11,ESE,113,4.0,4.0,90,0.00,,,0.00,Wunderground v.1.15,2013-01-30 03:47:00,
2013-01-29 22:48:00,69.4,66.3,30.11,ESE,106,1.0,4.0,90,0.00,,,0.00,Wunderground v.1.15,2013-01-30 03:48:00,
2013-01-29 22:49:00,69.4,66.3,30.11,ESE,103,2.0,4.0,90,0.00,,,0.00,Wunderground v.1.15,2013-01-30 03:49:00,
2013-01-29 22:50:00,69.4,66.3,30.11,ESE,105,2.0,5.0,90,0.00,,,0.00,Wunderground v.1.15,2013-01-30 03:50:00,
2013-01-29 22:52:00,69.3,66.2,30.11,ESE,109,4.0,5.0,90,0.00,,,0.00,Wunderground v.1.15,2013-01-30 03:52:00,
2013-01-29 22:53:00,69.3,66.6,30.11,ESE,109,1.0,5.0,91,0.00,,,0.00,Wunderground v.1.15,2013-01-30 03:53:00,
2013-01-29 22:54:00,69.3,66.6,30.11,ESE,115,2.0,5.0,91,0.00,,,0.00,Wunderground v.1.15,2013-01-30 03:54:00,
2013-01-29 22:56:00,69.2,66.5,30.11,SE,125,5.0,5.0,91,0.00,,,0.00,Wunderground v.1.15,2013-01-30 03:56:00,
2013-01-29 22:57:00,69.2,66.5,30.11,SSE,147,3.0,5.0,91,0.00,,,0.00,Wunderground v.1.15,2013-01-30 03:57:00,
2013-01-29 22:58:00,69.2,66.5,30.11,ESE,117,2.0,5.0,91,0.00,,,0.00,Wunderground v.1.15,2013-01-30 03:58:00,
2013-01-29 22:59:00,69.1,66.4,30.11,ESE,117,2.0,5.0,91,0.00,,,0.00,Wunderground v.1.15,2013-01-30 03:59:00,
2013-01-29 23:01:00,69.0,66.3,30.11,East,91,4.0,4.0,91,0.00,,,0.00,Wunderground v.1.15,2013-01-30 04:01:00,
2013-01-29 23:03:00,69.0,66.3,30.11,ESE,104,4.0,5.0,91,0.00,,,0.00,Wunderground v.1.15,2013-01-30 04:03:00,
2013-01-29 23:04:00,69.0,66.3,30.11,ESE,104,1.0,5.0,91,0.00,,,0.00,Wunderground v.1.15,2013-01-30 04:04:00,
2013-01-29 23:06:00,69.0,66.3,30.11,SE,136,2.0,5.0,91,0.00,,,0.00,Wunderground v.1.15,2013-01-30 04:06:00,
2013-01-29 23:08:00,69.0,66.3,30.11,SSE,162,3.0,5.0,91,0.00,,,0.00,Wunderground v.1.15,2013-01-30 04:08:00,
2013-01-29 23:10:00,69.0,66.3,30.11,East,91,1.0,2.0,91,0.00,,,0.00,Wunderground v.1.15,2013-01-30 04:10:00,
2013-01-29 23:12:00,69.0,66.6,30.11,ESE,111,1.0,4.0,92,0.00,,,0.00,Wunderground v.1.15,2013-01-30 04:12:00,
2013-01-29 23:13:00,69.0,66.6,30.11,ESE,119,5.0,5.0,92,0.00,,,0.00,Wunderground v.1.15,2013-01-30 04:13:00,
2013-01-29 23:15:00,69.0,66.6,30.11,ESE,107,2.0,5.0,92,0.00,,,0.00,Wunderground v.1.15,2013-01-30 04:15:00,
2013-01-29 23:17:00,68.9,66.5,30.11,ESE,115,2.0,5.0,92,0.00,,,0.00,Wunderground v.1.15,2013-01-30 04:17:00,
2013-01-29 23:18:00,69.0,66.6,30.11,SE,127,2.0,5.0,92,0.00,,,0.00,Wunderground v.1.15,2013-01-30 04:18:00,
2013-01-29 23:19:00,69.0,66.6,30.11,SE,142,3.0,5.0,92,0.00,,,0.00,Wunderground v.1.15,2013-01-30 04:19:00,
2013-01-29 23:20:00,69.0,66.6,30.11,ESE,115,4.0,5.0,92,0.00,,,0.00,Wunderground v.1.15,2013-01-30 04:20:00,
2013-01-29 23:22:00,69.0,66.6,30.11,ESE,117,2.0,5.0,92,0.00,,,0.00,Wunderground v.1.15,2013-01-30 04:22:00,
2013-01-29 23:23:00,69.0,66.6,30.11,ESE,111,4.0,5.0,92,0.00,,,0.00,Wunderground v.1.15,2013-01-30 04:23:00,
2013-01-29 23:24:00,69.0,66.6,30.11,East,92,5.0,5.0,92,0.00,,,0.00,Wunderground v.1.15,2013-01-30 04:24:00,
2013-01-29 23:26:00,69.0,66.6,30.11,SE,131,2.0,5.0,92,0.00,,,0.00,Wunderground v.1.15,2013-01-30 04:26:00,
2013-01-29 23:27:00,69.1,66.7,30.11,East,84,4.0,5.0,92,0.00,,,0.00,Wunderground v.1.15,2013-01-30 04:27:00,
2013-01-29 23:29:00,69.1,66.7,30.11,ESE,112,2.0,5.0,92,0.00,,,0.00,Wunderground v.1.15,2013-01-30 04:29:00,
2013-01-29 23:31:00,69.1,66.7,30.11,SE,133,3.0,6.0,92,0.00,,,0.00,Wunderground v.1.15,2013-01-30 04:31:00,
2013-01-29 23:32:00,69.1,66.7,30.11,SE,132,2.0,6.0,92,0.00,,,0.00,Wunderground v.1.15,2013-01-30 04:32:00,
2013-01-29 23:34:00,69.1,66.7,30.11,ESE,115,3.0,6.0,92,0.00,,,0.00,Wunderground v.1.15,2013-01-30 04:34:00,
2013-01-29 23:36:00,69.1,66.7,30.11,SE,126,4.0,6.0,92,0.00,,,0.00,Wunderground v.1.15,2013-01-30 04:36:00,
2013-01-29 23:37:00,69.2,66.8,30.11,SE,127,2.0,6.0,92,0.00,,,0.00,Wunderground v.1.15,2013-01-30 04:37:00,
2013-01-29 23:39:00,69.2,66.8,30.11,SE,126,2.0,6.0,92,0.00,,,0.00,Wunderground v.1.15,2013-01-30 04:39:00,
2013-01-29 23:41:00,69.2,66.8,30.11,ESE,103,2.0,4.0,92,0.00,,,0.00,Wunderground v.1.15,2013-01-30 04:41:00,
2013-01-29 23:42:00,69.2,66.8,30.11,SE,132,0.0,4.0,92,0.00,,,0.00,Wunderground v.1.15,2013-01-30 04:42:00,
2013-01-29 23:44:00,69.1,66.7,30.11,ESE,105,3.0,4.0,92,0.00,,,0.00,Wunderground v.1.15,2013-01-30 04:44:00,
2013-01-29 23:47:00,69.1,66.7,30.11,ESE,102,2.0,4.0,92,0.00,,,0.00,Wunderground v.1.15,2013-01-30 04:47:00,
2013-01-29 23:49:00,69.0,66.6,30.11,ESE,107,3.0,4.0,92,0.00,,,0.00,Wunderground v.1.15,2013-01-30 04:49:00,
2013-01-29 23:50:00,69.0,66.6,30.11,ESE,106,4.0,4.0,92,0.00,,,0.00,Wunderground v.1.15,2013-01-30 04:50:00,
2013-01-29 23:52:00,69.0,66.6,30.11,ESE,110,2.0,4.0,92,0.00,,,0.00,Wunderground v.1.15,2013-01-30 04:52:00,
2013-01-29 23:53:00,69.0,66.6,30.11,ESE,104,2.0,4.0,92,0.00,,,0.00,Wunderground v.1.15,2013-01-30 04:53:00,
2013-01-29 23:54:00,69.0,66.6,30.11,ESE,121,1.0,4.0,92,0.00,,,0.00,Wunderground v.1.15,2013-01-30 04:54:00,
2013-01-29 23:56:00,69.0,66.6,30.11,SE,131,2.0,4.0,92,0.00,,,0.00,Wunderground v.1.15,2013-01-30 04:56:00,
2013-01-29 23:57:00,69.0,66.6,30.11,East,91,1.0,4.0,92,0.00,,,0.00,Wunderground v.1.15,2013-01-30 04:57:00,
2013-01-29 23:58:00,69.0,66.6,30.11,ESE,113,1.0,4.0,92,0.00,,,0.00,Wunderground v.1.15,2013-01-30 04:58:00,